<?xml version="1.0" encoding="UTF-8" standalone="no" ?>
<gpx xmlns="http://www.topografix.com/GPX/1/1" xmlns:xsi="http://www.w3.org/2001/XMLSchema-instance" xsi:schemaLocation="http://www.topografix.com/GPX/1/1 http://www.topografix.com/GPX/1/1/gpx.xsd" version="1.1" creator="VisuGPX - https://www.visugpx.com">
  <metadata>
    <name>Ski rando Vosges 15/01/2022</name>
  </metadata>
  <trk>
    <name><![CDATA[Activité actuelle: 31 DEC 2021 09:05]]></name>
    <trkseg>
      <trkpt lat="48.05019" lon="7.00475">
        <ele>1139.5</ele>
        <time>2022-01-15T08:45:36Z</time>
      </trkpt>
      <trkpt lat="48.0502" lon="7.0049">
        <ele>1141.89</ele>
        <time>2022-01-15T08:45:53Z</time>
      </trkpt>
      <trkpt lat="48.05015" lon="7.00495">
        <ele>1143.92</ele>
        <time>2022-01-15T08:46:05Z</time>
      </trkpt>
      <trkpt lat="48.05006" lon="7.005">
        <ele>1146.14</ele>
        <time>2022-01-15T08:46:24Z</time>
      </trkpt>
      <trkpt lat="48.05004" lon="7.00503">
        <ele>1147.85</ele>
        <time>2022-01-15T08:46:52Z</time>
      </trkpt>
      <trkpt lat="48.05006" lon="7.00518">
        <ele>1150.11</ele>
        <time>2022-01-15T08:47:10Z</time>
      </trkpt>
      <trkpt lat="48.04998" lon="7.00528">
        <ele>1153.18</ele>
        <time>2022-01-15T08:47:27Z</time>
      </trkpt>
      <trkpt lat="48.04991" lon="7.00533">
        <ele>1155.53</ele>
        <time>2022-01-15T08:47:42Z</time>
      </trkpt>
      <trkpt lat="48.04985" lon="7.00542">
        <ele>1157.22</ele>
        <time>2022-01-15T08:47:58Z</time>
      </trkpt>
      <trkpt lat="48.04991" lon="7.00551">
        <ele>1159.11</ele>
        <time>2022-01-15T08:48:11Z</time>
      </trkpt>
      <trkpt lat="48.04998" lon="7.00563">
        <ele>1162.05</ele>
        <time>2022-01-15T08:48:30Z</time>
      </trkpt>
      <trkpt lat="48.05002" lon="7.00577">
        <ele>1164.32</ele>
        <time>2022-01-15T08:48:50Z</time>
      </trkpt>
      <trkpt lat="48.05006" lon="7.00592">
        <ele>1167.2</ele>
        <time>2022-01-15T08:49:09Z</time>
      </trkpt>
      <trkpt lat="48.05001" lon="7.00603">
        <ele>1170.23</ele>
        <time>2022-01-15T08:49:26Z</time>
      </trkpt>
      <trkpt lat="48.04993" lon="7.00606">
        <ele>1172.51</ele>
        <time>2022-01-15T08:49:40Z</time>
      </trkpt>
      <trkpt lat="48.04986" lon="7.00613">
        <ele>1175.14</ele>
        <time>2022-01-15T08:49:55Z</time>
      </trkpt>
      <trkpt lat="48.04981" lon="7.00614">
        <ele>1176.97</ele>
        <time>2022-01-15T08:50:09Z</time>
      </trkpt>
      <trkpt lat="48.04973" lon="7.00621">
        <ele>1178.23</ele>
        <time>2022-01-15T08:50:28Z</time>
      </trkpt>
      <trkpt lat="48.04973" lon="7.00628">
        <ele>1179.31</ele>
        <time>2022-01-15T08:50:39Z</time>
      </trkpt>
      <trkpt lat="48.04979" lon="7.00642">
        <ele>1182.41</ele>
        <time>2022-01-15T08:50:58Z</time>
      </trkpt>
      <trkpt lat="48.04981" lon="7.00655">
        <ele>1185.45</ele>
        <time>2022-01-15T08:51:15Z</time>
      </trkpt>
      <trkpt lat="48.04985" lon="7.00667">
        <ele>1187.82</ele>
        <time>2022-01-15T08:51:31Z</time>
      </trkpt>
      <trkpt lat="48.04987" lon="7.00675">
        <ele>1190.39</ele>
        <time>2022-01-15T08:51:54Z</time>
      </trkpt>
      <trkpt lat="48.04979" lon="7.00686">
        <ele>1192.3</ele>
        <time>2022-01-15T08:52:13Z</time>
      </trkpt>
      <trkpt lat="48.04972" lon="7.0069">
        <ele>1195.17</ele>
        <time>2022-01-15T08:52:33Z</time>
      </trkpt>
      <trkpt lat="48.04966" lon="7.00697">
        <ele>1196.93</ele>
        <time>2022-01-15T08:52:53Z</time>
      </trkpt>
      <trkpt lat="48.04961" lon="7.00707">
        <ele>1198.76</ele>
        <time>2022-01-15T08:53:08Z</time>
      </trkpt>
      <trkpt lat="48.04962" lon="7.00723">
        <ele>1201.43</ele>
        <time>2022-01-15T08:53:29Z</time>
      </trkpt>
      <trkpt lat="48.04962" lon="7.00726">
        <ele>1203.98</ele>
        <time>2022-01-15T08:53:44Z</time>
      </trkpt>
      <trkpt lat="48.0496" lon="7.00729">
        <ele>1204.54</ele>
        <time>2022-01-15T08:54:00Z</time>
      </trkpt>
      <trkpt lat="48.0496" lon="7.0074">
        <ele>1205.52</ele>
        <time>2022-01-15T08:54:16Z</time>
      </trkpt>
      <trkpt lat="48.04959" lon="7.00753">
        <ele>1208.54</ele>
        <time>2022-01-15T08:54:32Z</time>
      </trkpt>
      <trkpt lat="48.04958" lon="7.00757">
        <ele>1210</ele>
        <time>2022-01-15T08:55:09Z</time>
      </trkpt>
      <trkpt lat="48.04961" lon="7.00769">
        <ele>1212.05</ele>
        <time>2022-01-15T08:55:24Z</time>
      </trkpt>
      <trkpt lat="48.04962" lon="7.00783">
        <ele>1214.8</ele>
        <time>2022-01-15T08:55:42Z</time>
      </trkpt>
      <trkpt lat="48.0496" lon="7.00794">
        <ele>1216.89</ele>
        <time>2022-01-15T08:55:59Z</time>
      </trkpt>
      <trkpt lat="48.04953" lon="7.00802">
        <ele>1219.64</ele>
        <time>2022-01-15T08:56:16Z</time>
      </trkpt>
      <trkpt lat="48.04953" lon="7.00803">
        <ele>1221.26</ele>
        <time>2022-01-15T08:57:04Z</time>
      </trkpt>
      <trkpt lat="48.04945" lon="7.00806">
        <ele>1222.22</ele>
        <time>2022-01-15T08:57:27Z</time>
      </trkpt>
      <trkpt lat="48.04936" lon="7.00813">
        <ele>1225.26</ele>
        <time>2022-01-15T08:57:45Z</time>
      </trkpt>
      <trkpt lat="48.04929" lon="7.00821">
        <ele>1227.82</ele>
        <time>2022-01-15T08:58:00Z</time>
      </trkpt>
      <trkpt lat="48.04928" lon="7.0083">
        <ele>1230.1</ele>
        <time>2022-01-15T08:58:13Z</time>
      </trkpt>
      <trkpt lat="48.04929" lon="7.00844">
        <ele>1232.91</ele>
        <time>2022-01-15T08:58:31Z</time>
      </trkpt>
      <trkpt lat="48.04928" lon="7.00859">
        <ele>1235.92</ele>
        <time>2022-01-15T08:58:48Z</time>
      </trkpt>
      <trkpt lat="48.04927" lon="7.00875">
        <ele>1238.94</ele>
        <time>2022-01-15T08:59:06Z</time>
      </trkpt>
      <trkpt lat="48.04925" lon="7.0089">
        <ele>1242.36</ele>
        <time>2022-01-15T08:59:25Z</time>
      </trkpt>
      <trkpt lat="48.04924" lon="7.00903">
        <ele>1245.43</ele>
        <time>2022-01-15T08:59:40Z</time>
      </trkpt>
      <trkpt lat="48.0492" lon="7.00917">
        <ele>1248.62</ele>
        <time>2022-01-15T08:59:58Z</time>
      </trkpt>
      <trkpt lat="48.04915" lon="7.00919">
        <ele>1250.63</ele>
        <time>2022-01-15T09:00:13Z</time>
      </trkpt>
      <trkpt lat="48.049" lon="7.00923">
        <ele>1252.56</ele>
        <time>2022-01-15T09:00:36Z</time>
      </trkpt>
      <trkpt lat="48.04889" lon="7.00922">
        <ele>1255.16</ele>
        <time>2022-01-15T09:00:53Z</time>
      </trkpt>
      <trkpt lat="48.04886" lon="7.00924">
        <ele>1256.29</ele>
        <time>2022-01-15T09:01:16Z</time>
      </trkpt>
      <trkpt lat="48.04879" lon="7.0092">
        <ele>1256.22</ele>
        <time>2022-01-15T09:01:35Z</time>
      </trkpt>
      <trkpt lat="48.04874" lon="7.00917">
        <ele>1256.55</ele>
        <time>2022-01-15T09:01:49Z</time>
      </trkpt>
      <trkpt lat="48.04871" lon="7.00915">
        <ele>1255.97</ele>
        <time>2022-01-15T09:02:07Z</time>
      </trkpt>
      <trkpt lat="48.0487" lon="7.00916">
        <ele>1255.74</ele>
        <time>2022-01-15T09:02:24Z</time>
      </trkpt>
      <trkpt lat="48.04866" lon="7.00915">
        <ele>1255.14</ele>
        <time>2022-01-15T09:02:42Z</time>
      </trkpt>
      <trkpt lat="48.04862" lon="7.00919">
        <ele>1255.28</ele>
        <time>2022-01-15T09:03:06Z</time>
      </trkpt>
      <trkpt lat="48.04866" lon="7.00928">
        <ele>1255.04</ele>
        <time>2022-01-15T09:03:19Z</time>
      </trkpt>
      <trkpt lat="48.04865" lon="7.00929">
        <ele>1255.34</ele>
        <time>2022-01-15T09:03:42Z</time>
      </trkpt>
      <trkpt lat="48.04862" lon="7.00927">
        <ele>1255.37</ele>
        <time>2022-01-15T09:04:06Z</time>
      </trkpt>
      <trkpt lat="48.04849" lon="7.00917">
        <ele>1255.88</ele>
        <time>2022-01-15T09:04:24Z</time>
      </trkpt>
      <trkpt lat="48.0484" lon="7.00911">
        <ele>1255.64</ele>
        <time>2022-01-15T09:04:38Z</time>
      </trkpt>
      <trkpt lat="48.04832" lon="7.00905">
        <ele>1255.51</ele>
        <time>2022-01-15T09:04:55Z</time>
      </trkpt>
      <trkpt lat="48.04819" lon="7.00901">
        <ele>1256.62</ele>
        <time>2022-01-15T09:05:13Z</time>
      </trkpt>
      <trkpt lat="48.04805" lon="7.00896">
        <ele>1257.96</ele>
        <time>2022-01-15T09:05:34Z</time>
      </trkpt>
      <trkpt lat="48.04793" lon="7.00891">
        <ele>1258.83</ele>
        <time>2022-01-15T09:05:53Z</time>
      </trkpt>
      <trkpt lat="48.0478" lon="7.00882">
        <ele>1260.28</ele>
        <time>2022-01-15T09:06:13Z</time>
      </trkpt>
      <trkpt lat="48.04766" lon="7.00875">
        <ele>1261.5</ele>
        <time>2022-01-15T09:06:33Z</time>
      </trkpt>
      <trkpt lat="48.0476" lon="7.00874">
        <ele>1261.62</ele>
        <time>2022-01-15T09:06:40Z</time>
      </trkpt>
      <trkpt lat="48.04747" lon="7.00875">
        <ele>1262.48</ele>
        <time>2022-01-15T09:06:57Z</time>
      </trkpt>
      <trkpt lat="48.04741" lon="7.00889">
        <ele>1265.39</ele>
        <time>2022-01-15T09:07:17Z</time>
      </trkpt>
      <trkpt lat="48.04736" lon="7.00881">
        <ele>1266.75</ele>
        <time>2022-01-15T09:07:28Z</time>
      </trkpt>
      <trkpt lat="48.04727" lon="7.00884">
        <ele>1267.31</ele>
        <time>2022-01-15T09:07:42Z</time>
      </trkpt>
      <trkpt lat="48.04719" lon="7.00889">
        <ele>1269.44</ele>
        <time>2022-01-15T09:07:57Z</time>
      </trkpt>
      <trkpt lat="48.04717" lon="7.00904">
        <ele>1272.49</ele>
        <time>2022-01-15T09:08:16Z</time>
      </trkpt>
      <trkpt lat="48.04707" lon="7.00912">
        <ele>1274.85</ele>
        <time>2022-01-15T09:08:34Z</time>
      </trkpt>
      <trkpt lat="48.04701" lon="7.00915">
        <ele>1276.03</ele>
        <time>2022-01-15T09:08:52Z</time>
      </trkpt>
      <trkpt lat="48.04689" lon="7.0092">
        <ele>1278.08</ele>
        <time>2022-01-15T09:09:10Z</time>
      </trkpt>
      <trkpt lat="48.04676" lon="7.00926">
        <ele>1279.98</ele>
        <time>2022-01-15T09:09:32Z</time>
      </trkpt>
      <trkpt lat="48.04668" lon="7.00932">
        <ele>1282.14</ele>
        <time>2022-01-15T09:09:50Z</time>
      </trkpt>
      <trkpt lat="48.04655" lon="7.00936">
        <ele>1283.76</ele>
        <time>2022-01-15T09:10:10Z</time>
      </trkpt>
      <trkpt lat="48.04645" lon="7.00942">
        <ele>1285.71</ele>
        <time>2022-01-15T09:10:29Z</time>
      </trkpt>
      <trkpt lat="48.04636" lon="7.0095">
        <ele>1287</ele>
        <time>2022-01-15T09:10:48Z</time>
      </trkpt>
      <trkpt lat="48.04627" lon="7.00961">
        <ele>1289.55</ele>
        <time>2022-01-15T09:11:09Z</time>
      </trkpt>
      <trkpt lat="48.04619" lon="7.00967">
        <ele>1290.84</ele>
        <time>2022-01-15T09:11:33Z</time>
      </trkpt>
      <trkpt lat="48.0461" lon="7.00972">
        <ele>1292.53</ele>
        <time>2022-01-15T09:11:55Z</time>
      </trkpt>
      <trkpt lat="48.04601" lon="7.00971">
        <ele>1292.84</ele>
        <time>2022-01-15T09:12:13Z</time>
      </trkpt>
      <trkpt lat="48.04594" lon="7.00969">
        <ele>1292.73</ele>
        <time>2022-01-15T09:12:28Z</time>
      </trkpt>
      <trkpt lat="48.04581" lon="7.0096">
        <ele>1292.29</ele>
        <time>2022-01-15T09:12:45Z</time>
      </trkpt>
      <trkpt lat="48.04572" lon="7.00954">
        <ele>1291.15</ele>
        <time>2022-01-15T09:13:01Z</time>
      </trkpt>
      <trkpt lat="48.04562" lon="7.00949">
        <ele>1290.22</ele>
        <time>2022-01-15T09:13:16Z</time>
      </trkpt>
      <trkpt lat="48.04552" lon="7.00937">
        <ele>1290.06</ele>
        <time>2022-01-15T09:13:35Z</time>
      </trkpt>
      <trkpt lat="48.04537" lon="7.00923">
        <ele>1290.51</ele>
        <time>2022-01-15T09:13:58Z</time>
      </trkpt>
      <trkpt lat="48.04526" lon="7.00918">
        <ele>1290.99</ele>
        <time>2022-01-15T09:14:16Z</time>
      </trkpt>
      <trkpt lat="48.04513" lon="7.0092">
        <ele>1294</ele>
        <time>2022-01-15T09:14:36Z</time>
      </trkpt>
      <trkpt lat="48.04502" lon="7.00918">
        <ele>1295.62</ele>
        <time>2022-01-15T09:14:53Z</time>
      </trkpt>
      <trkpt lat="48.04496" lon="7.00918">
        <ele>1296.76</ele>
        <time>2022-01-15T09:15:11Z</time>
      </trkpt>
      <trkpt lat="48.04487" lon="7.00915">
        <ele>1297.67</ele>
        <time>2022-01-15T09:15:27Z</time>
      </trkpt>
      <trkpt lat="48.04483" lon="7.0092">
        <ele>1298.78</ele>
        <time>2022-01-15T09:15:40Z</time>
      </trkpt>
      <trkpt lat="48.0448" lon="7.00935">
        <ele>1300.25</ele>
        <time>2022-01-15T09:15:58Z</time>
      </trkpt>
      <trkpt lat="48.04473" lon="7.00942">
        <ele>1301.98</ele>
        <time>2022-01-15T09:16:16Z</time>
      </trkpt>
      <trkpt lat="48.04467" lon="7.0095">
        <ele>1303.77</ele>
        <time>2022-01-15T09:16:33Z</time>
      </trkpt>
      <trkpt lat="48.04457" lon="7.00956">
        <ele>1305.94</ele>
        <time>2022-01-15T09:16:54Z</time>
      </trkpt>
      <trkpt lat="48.0445" lon="7.00967">
        <ele>1307.77</ele>
        <time>2022-01-15T09:17:12Z</time>
      </trkpt>
      <trkpt lat="48.04442" lon="7.00978">
        <ele>1309.81</ele>
        <time>2022-01-15T09:17:30Z</time>
      </trkpt>
      <trkpt lat="48.04427" lon="7.00979">
        <ele>1312.62</ele>
        <time>2022-01-15T09:17:52Z</time>
      </trkpt>
      <trkpt lat="48.04416" lon="7.00983">
        <ele>1314.73</ele>
        <time>2022-01-15T09:18:10Z</time>
      </trkpt>
      <trkpt lat="48.04406" lon="7.00991">
        <ele>1316.84</ele>
        <time>2022-01-15T09:18:28Z</time>
      </trkpt>
      <trkpt lat="48.04395" lon="7.00994">
        <ele>1318.66</ele>
        <time>2022-01-15T09:18:46Z</time>
      </trkpt>
      <trkpt lat="48.04381" lon="7.00992">
        <ele>1320.63</ele>
        <time>2022-01-15T09:19:05Z</time>
      </trkpt>
      <trkpt lat="48.04367" lon="7.00986">
        <ele>1322.47</ele>
        <time>2022-01-15T09:19:26Z</time>
      </trkpt>
      <trkpt lat="48.04356" lon="7.00981">
        <ele>1324.09</ele>
        <time>2022-01-15T09:19:44Z</time>
      </trkpt>
      <trkpt lat="48.04347" lon="7.00979">
        <ele>1325.43</ele>
        <time>2022-01-15T09:19:58Z</time>
      </trkpt>
      <trkpt lat="48.04337" lon="7.00976">
        <ele>1327.39</ele>
        <time>2022-01-15T09:20:16Z</time>
      </trkpt>
      <trkpt lat="48.04325" lon="7.00972">
        <ele>1328.63</ele>
        <time>2022-01-15T09:20:33Z</time>
      </trkpt>
      <trkpt lat="48.0431" lon="7.00968">
        <ele>1329.66</ele>
        <time>2022-01-15T09:20:52Z</time>
      </trkpt>
      <trkpt lat="48.04297" lon="7.00963">
        <ele>1330.38</ele>
        <time>2022-01-15T09:21:10Z</time>
      </trkpt>
      <trkpt lat="48.04293" lon="7.00964">
        <ele>1330.82</ele>
        <time>2022-01-15T09:21:28Z</time>
      </trkpt>
      <trkpt lat="48.04289" lon="7.00968">
        <ele>1331</ele>
        <time>2022-01-15T09:21:53Z</time>
      </trkpt>
      <trkpt lat="48.04275" lon="7.00977">
        <ele>1330.97</ele>
        <time>2022-01-15T09:22:11Z</time>
      </trkpt>
      <trkpt lat="48.04259" lon="7.0099">
        <ele>1330.65</ele>
        <time>2022-01-15T09:22:31Z</time>
      </trkpt>
      <trkpt lat="48.04241" lon="7.01005">
        <ele>1329.47</ele>
        <time>2022-01-15T09:22:51Z</time>
      </trkpt>
      <trkpt lat="48.04225" lon="7.01017">
        <ele>1327.98</ele>
        <time>2022-01-15T09:23:10Z</time>
      </trkpt>
      <trkpt lat="48.04212" lon="7.0103">
        <ele>1326.9</ele>
        <time>2022-01-15T09:23:28Z</time>
      </trkpt>
      <trkpt lat="48.04206" lon="7.01035">
        <ele>1325.45</ele>
        <time>2022-01-15T09:23:50Z</time>
      </trkpt>
      <trkpt lat="48.04205" lon="7.01035">
        <ele>1325.11</ele>
        <time>2022-01-15T09:24:44Z</time>
      </trkpt>
      <trkpt lat="48.04203" lon="7.01037">
        <ele>1325.26</ele>
        <time>2022-01-15T09:25:25Z</time>
      </trkpt>
      <trkpt lat="48.04199" lon="7.01039">
        <ele>1324.75</ele>
        <time>2022-01-15T09:25:55Z</time>
      </trkpt>
      <trkpt lat="48.04179" lon="7.01056">
        <ele>1321.95</ele>
        <time>2022-01-15T09:26:18Z</time>
      </trkpt>
      <trkpt lat="48.04161" lon="7.01073">
        <ele>1318.9</ele>
        <time>2022-01-15T09:26:38Z</time>
      </trkpt>
      <trkpt lat="48.0415" lon="7.01085">
        <ele>1318.52</ele>
        <time>2022-01-15T09:26:54Z</time>
      </trkpt>
      <trkpt lat="48.04144" lon="7.01088">
        <ele>1319.57</ele>
        <time>2022-01-15T09:27:07Z</time>
      </trkpt>
      <trkpt lat="48.04133" lon="7.01087">
        <ele>1319.56</ele>
        <time>2022-01-15T09:27:23Z</time>
      </trkpt>
      <trkpt lat="48.04127" lon="7.01087">
        <ele>1319.66</ele>
        <time>2022-01-15T09:27:39Z</time>
      </trkpt>
      <trkpt lat="48.04126" lon="7.01087">
        <ele>1319.72</ele>
        <time>2022-01-15T09:27:56Z</time>
      </trkpt>
      <trkpt lat="48.04119" lon="7.01092">
        <ele>1319.89</ele>
        <time>2022-01-15T09:28:12Z</time>
      </trkpt>
      <trkpt lat="48.04098" lon="7.01107">
        <ele>1321.68</ele>
        <time>2022-01-15T09:28:35Z</time>
      </trkpt>
      <trkpt lat="48.04088" lon="7.01114">
        <ele>1322.56</ele>
        <time>2022-01-15T09:28:51Z</time>
      </trkpt>
      <trkpt lat="48.04081" lon="7.01126">
        <ele>1324.56</ele>
        <time>2022-01-15T09:29:08Z</time>
      </trkpt>
      <trkpt lat="48.04069" lon="7.01141">
        <ele>1326.6</ele>
        <time>2022-01-15T09:29:27Z</time>
      </trkpt>
      <trkpt lat="48.04053" lon="7.01151">
        <ele>1328.65</ele>
        <time>2022-01-15T09:29:48Z</time>
      </trkpt>
      <trkpt lat="48.04038" lon="7.01163">
        <ele>1331.05</ele>
        <time>2022-01-15T09:30:09Z</time>
      </trkpt>
      <trkpt lat="48.04023" lon="7.01173">
        <ele>1332.81</ele>
        <time>2022-01-15T09:30:30Z</time>
      </trkpt>
      <trkpt lat="48.04011" lon="7.01182">
        <ele>1334.01</ele>
        <time>2022-01-15T09:30:47Z</time>
      </trkpt>
      <trkpt lat="48.03995" lon="7.01193">
        <ele>1335.53</ele>
        <time>2022-01-15T09:31:08Z</time>
      </trkpt>
      <trkpt lat="48.03978" lon="7.01204">
        <ele>1337.84</ele>
        <time>2022-01-15T09:31:29Z</time>
      </trkpt>
      <trkpt lat="48.03961" lon="7.01213">
        <ele>1340.32</ele>
        <time>2022-01-15T09:31:50Z</time>
      </trkpt>
      <trkpt lat="48.03957" lon="7.01216">
        <ele>1341.94</ele>
        <time>2022-01-15T09:32:09Z</time>
      </trkpt>
      <trkpt lat="48.03944" lon="7.01224">
        <ele>1342.53</ele>
        <time>2022-01-15T09:32:28Z</time>
      </trkpt>
      <trkpt lat="48.0393" lon="7.01233">
        <ele>1343.58</ele>
        <time>2022-01-15T09:32:47Z</time>
      </trkpt>
      <trkpt lat="48.03914" lon="7.01247">
        <ele>1345.97</ele>
        <time>2022-01-15T09:33:09Z</time>
      </trkpt>
      <trkpt lat="48.03897" lon="7.01262">
        <ele>1348.28</ele>
        <time>2022-01-15T09:33:31Z</time>
      </trkpt>
      <trkpt lat="48.03884" lon="7.01279">
        <ele>1350.93</ele>
        <time>2022-01-15T09:33:52Z</time>
      </trkpt>
      <trkpt lat="48.03873" lon="7.01297">
        <ele>1352.8</ele>
        <time>2022-01-15T09:34:12Z</time>
      </trkpt>
      <trkpt lat="48.03859" lon="7.01316">
        <ele>1355.1</ele>
        <time>2022-01-15T09:34:35Z</time>
      </trkpt>
      <trkpt lat="48.03845" lon="7.01335">
        <ele>1357.05</ele>
        <time>2022-01-15T09:34:57Z</time>
      </trkpt>
      <trkpt lat="48.03832" lon="7.01354">
        <ele>1359.61</ele>
        <time>2022-01-15T09:35:22Z</time>
      </trkpt>
      <trkpt lat="48.03813" lon="7.0136">
        <ele>1361.19</ele>
        <time>2022-01-15T09:35:46Z</time>
      </trkpt>
      <trkpt lat="48.03801" lon="7.01378">
        <ele>1363.29</ele>
        <time>2022-01-15T09:36:09Z</time>
      </trkpt>
      <trkpt lat="48.03798" lon="7.01392">
        <ele>1365.86</ele>
        <time>2022-01-15T09:36:27Z</time>
      </trkpt>
      <trkpt lat="48.03801" lon="7.01401">
        <ele>1366.49</ele>
        <time>2022-01-15T09:36:50Z</time>
      </trkpt>
      <trkpt lat="48.03814" lon="7.01423">
        <ele>1368.77</ele>
        <time>2022-01-15T09:37:14Z</time>
      </trkpt>
      <trkpt lat="48.03822" lon="7.01444">
        <ele>1370.72</ele>
        <time>2022-01-15T09:37:36Z</time>
      </trkpt>
      <trkpt lat="48.03815" lon="7.01465">
        <ele>1373.18</ele>
        <time>2022-01-15T09:37:57Z</time>
      </trkpt>
      <trkpt lat="48.03809" lon="7.01484">
        <ele>1376.28</ele>
        <time>2022-01-15T09:38:17Z</time>
      </trkpt>
      <trkpt lat="48.03808" lon="7.01506">
        <ele>1378.65</ele>
        <time>2022-01-15T09:38:38Z</time>
      </trkpt>
      <trkpt lat="48.03802" lon="7.0151">
        <ele>1380.15</ele>
        <time>2022-01-15T09:38:52Z</time>
      </trkpt>
      <trkpt lat="48.03796" lon="7.01511">
        <ele>1381.49</ele>
        <time>2022-01-15T09:39:09Z</time>
      </trkpt>
      <trkpt lat="48.03794" lon="7.01511">
        <ele>1381.63</ele>
        <time>2022-01-15T09:39:32Z</time>
      </trkpt>
      <trkpt lat="48.03789" lon="7.01506">
        <ele>1381.49</ele>
        <time>2022-01-15T09:39:48Z</time>
      </trkpt>
      <trkpt lat="48.03773" lon="7.01505">
        <ele>1381.34</ele>
        <time>2022-01-15T09:40:07Z</time>
      </trkpt>
      <trkpt lat="48.0376" lon="7.01512">
        <ele>1380.64</ele>
        <time>2022-01-15T09:40:24Z</time>
      </trkpt>
      <trkpt lat="48.03747" lon="7.01522">
        <ele>1381.01</ele>
        <time>2022-01-15T09:40:42Z</time>
      </trkpt>
      <trkpt lat="48.03741" lon="7.01535">
        <ele>1383.03</ele>
        <time>2022-01-15T09:40:59Z</time>
      </trkpt>
      <trkpt lat="48.03739" lon="7.0154">
        <ele>1383.38</ele>
        <time>2022-01-15T09:41:15Z</time>
      </trkpt>
      <trkpt lat="48.03742" lon="7.0154">
        <ele>1383.16</ele>
        <time>2022-01-15T09:42:22Z</time>
      </trkpt>
      <trkpt lat="48.0374" lon="7.0154">
        <ele>1382.58</ele>
        <time>2022-01-15T09:42:55Z</time>
      </trkpt>
      <trkpt lat="48.03739" lon="7.01541">
        <ele>1383.09</ele>
        <time>2022-01-15T09:44:27Z</time>
      </trkpt>
      <trkpt lat="48.03739" lon="7.01544">
        <ele>1383.85</ele>
        <time>2022-01-15T09:45:11Z</time>
      </trkpt>
      <trkpt lat="48.03738" lon="7.01554">
        <ele>1384.18</ele>
        <time>2022-01-15T09:45:40Z</time>
      </trkpt>
      <trkpt lat="48.03739" lon="7.01568">
        <ele>1384.83</ele>
        <time>2022-01-15T09:45:52Z</time>
      </trkpt>
      <trkpt lat="48.03745" lon="7.01592">
        <ele>1385.25</ele>
        <time>2022-01-15T09:46:12Z</time>
      </trkpt>
      <trkpt lat="48.03751" lon="7.01617">
        <ele>1386.66</ele>
        <time>2022-01-15T09:46:33Z</time>
      </trkpt>
      <trkpt lat="48.03754" lon="7.01635">
        <ele>1386.85</ele>
        <time>2022-01-15T09:46:50Z</time>
      </trkpt>
      <trkpt lat="48.03758" lon="7.01641">
        <ele>1386.74</ele>
        <time>2022-01-15T09:47:10Z</time>
      </trkpt>
      <trkpt lat="48.03758" lon="7.01642">
        <ele>1386.22</ele>
        <time>2022-01-15T09:47:32Z</time>
      </trkpt>
      <trkpt lat="48.03759" lon="7.01644">
        <ele>1385.34</ele>
        <time>2022-01-15T09:47:50Z</time>
      </trkpt>
      <trkpt lat="48.03759" lon="7.01645">
        <ele>1385.29</ele>
        <time>2022-01-15T09:53:40Z</time>
      </trkpt>
      <trkpt lat="48.03759" lon="7.01644">
        <ele>1385.51</ele>
        <time>2022-01-15T09:54:24Z</time>
      </trkpt>
      <trkpt lat="48.0376" lon="7.01643">
        <ele>1386.21</ele>
        <time>2022-01-15T09:56:45Z</time>
      </trkpt>
      <trkpt lat="48.0376" lon="7.01644">
        <ele>1386.27</ele>
        <time>2022-01-15T09:57:45Z</time>
      </trkpt>
      <trkpt lat="48.03759" lon="7.01644">
        <ele>1386.16</ele>
        <time>2022-01-15T09:58:38Z</time>
      </trkpt>
      <trkpt lat="48.03759" lon="7.01645">
        <ele>1386.89</ele>
        <time>2022-01-15T09:59:01Z</time>
      </trkpt>
      <trkpt lat="48.03758" lon="7.01643">
        <ele>1387.4</ele>
        <time>2022-01-15T09:59:08Z</time>
      </trkpt>
      <trkpt lat="48.03756" lon="7.01634">
        <ele>1387.47</ele>
        <time>2022-01-15T09:59:15Z</time>
      </trkpt>
      <trkpt lat="48.03754" lon="7.01621">
        <ele>1387.63</ele>
        <time>2022-01-15T09:59:23Z</time>
      </trkpt>
      <trkpt lat="48.03748" lon="7.01595">
        <ele>1387.4</ele>
        <time>2022-01-15T09:59:40Z</time>
      </trkpt>
      <trkpt lat="48.03738" lon="7.01563">
        <ele>1386.04</ele>
        <time>2022-01-15T10:00:01Z</time>
      </trkpt>
      <trkpt lat="48.03738" lon="7.0156">
        <ele>1385.77</ele>
        <time>2022-01-15T10:00:16Z</time>
      </trkpt>
      <trkpt lat="48.03735" lon="7.01551">
        <ele>1385.64</ele>
        <time>2022-01-15T10:00:33Z</time>
      </trkpt>
      <trkpt lat="48.03729" lon="7.01531">
        <ele>1382.98</ele>
        <time>2022-01-15T10:00:53Z</time>
      </trkpt>
      <trkpt lat="48.0373" lon="7.0153">
        <ele>1382.84</ele>
        <time>2022-01-15T10:00:55Z</time>
      </trkpt>
      <trkpt lat="48.03727" lon="7.01524">
        <ele>1382.07</ele>
        <time>2022-01-15T10:01:00Z</time>
      </trkpt>
      <trkpt lat="48.03723" lon="7.01515">
        <ele>1379.72</ele>
        <time>2022-01-15T10:01:15Z</time>
      </trkpt>
      <trkpt lat="48.03719" lon="7.01506">
        <ele>1378.55</ele>
        <time>2022-01-15T10:01:35Z</time>
      </trkpt>
      <trkpt lat="48.03719" lon="7.01496">
        <ele>1377.11</ele>
        <time>2022-01-15T10:01:56Z</time>
      </trkpt>
      <trkpt lat="48.03719" lon="7.01493">
        <ele>1377.04</ele>
        <time>2022-01-15T10:01:59Z</time>
      </trkpt>
      <trkpt lat="48.03714" lon="7.01478">
        <ele>1375.33</ele>
        <time>2022-01-15T10:02:15Z</time>
      </trkpt>
      <trkpt lat="48.03706" lon="7.01466">
        <ele>1373.7</ele>
        <time>2022-01-15T10:02:32Z</time>
      </trkpt>
      <trkpt lat="48.03702" lon="7.01453">
        <ele>1370.85</ele>
        <time>2022-01-15T10:02:47Z</time>
      </trkpt>
      <trkpt lat="48.03703" lon="7.01445">
        <ele>1370.22</ele>
        <time>2022-01-15T10:03:09Z</time>
      </trkpt>
      <trkpt lat="48.03698" lon="7.01428">
        <ele>1368.76</ele>
        <time>2022-01-15T10:03:26Z</time>
      </trkpt>
      <trkpt lat="48.03693" lon="7.0141">
        <ele>1365.64</ele>
        <time>2022-01-15T10:03:46Z</time>
      </trkpt>
      <trkpt lat="48.0369" lon="7.01396">
        <ele>1363.93</ele>
        <time>2022-01-15T10:04:00Z</time>
      </trkpt>
      <trkpt lat="48.03685" lon="7.01379">
        <ele>1361.78</ele>
        <time>2022-01-15T10:04:17Z</time>
      </trkpt>
      <trkpt lat="48.0368" lon="7.01369">
        <ele>1360.23</ele>
        <time>2022-01-15T10:04:29Z</time>
      </trkpt>
      <trkpt lat="48.03673" lon="7.01368">
        <ele>1358.76</ele>
        <time>2022-01-15T10:04:46Z</time>
      </trkpt>
      <trkpt lat="48.03677" lon="7.01369">
        <ele>1358.57</ele>
        <time>2022-01-15T10:05:05Z</time>
      </trkpt>
      <trkpt lat="48.03677" lon="7.01364">
        <ele>1358.46</ele>
        <time>2022-01-15T10:05:38Z</time>
      </trkpt>
      <trkpt lat="48.03673" lon="7.01349">
        <ele>1356.37</ele>
        <time>2022-01-15T10:05:57Z</time>
      </trkpt>
      <trkpt lat="48.03669" lon="7.01337">
        <ele>1353.59</ele>
        <time>2022-01-15T10:06:15Z</time>
      </trkpt>
      <trkpt lat="48.03668" lon="7.01332">
        <ele>1352.83</ele>
        <time>2022-01-15T10:06:32Z</time>
      </trkpt>
      <trkpt lat="48.03667" lon="7.01328">
        <ele>1353.14</ele>
        <time>2022-01-15T10:06:44Z</time>
      </trkpt>
      <trkpt lat="48.03666" lon="7.01323">
        <ele>1353.12</ele>
        <time>2022-01-15T10:06:48Z</time>
      </trkpt>
      <trkpt lat="48.03663" lon="7.01306">
        <ele>1350.95</ele>
        <time>2022-01-15T10:07:01Z</time>
      </trkpt>
      <trkpt lat="48.03659" lon="7.013">
        <ele>1348.38</ele>
        <time>2022-01-15T10:07:11Z</time>
      </trkpt>
      <trkpt lat="48.03653" lon="7.01289">
        <ele>1345.23</ele>
        <time>2022-01-15T10:07:28Z</time>
      </trkpt>
      <trkpt lat="48.03647" lon="7.01282">
        <ele>1343.4</ele>
        <time>2022-01-15T10:07:44Z</time>
      </trkpt>
      <trkpt lat="48.03642" lon="7.01273">
        <ele>1342.48</ele>
        <time>2022-01-15T10:07:55Z</time>
      </trkpt>
      <trkpt lat="48.03631" lon="7.01263">
        <ele>1339.17</ele>
        <time>2022-01-15T10:08:12Z</time>
      </trkpt>
      <trkpt lat="48.0362" lon="7.01253">
        <ele>1336.12</ele>
        <time>2022-01-15T10:08:29Z</time>
      </trkpt>
      <trkpt lat="48.0361" lon="7.01244">
        <ele>1333.92</ele>
        <time>2022-01-15T10:08:43Z</time>
      </trkpt>
      <trkpt lat="48.03592" lon="7.01224">
        <ele>1330.89</ele>
        <time>2022-01-15T10:09:03Z</time>
      </trkpt>
      <trkpt lat="48.0358" lon="7.0121">
        <ele>1328.99</ele>
        <time>2022-01-15T10:09:19Z</time>
      </trkpt>
      <trkpt lat="48.03568" lon="7.01194">
        <ele>1325.82</ele>
        <time>2022-01-15T10:09:36Z</time>
      </trkpt>
      <trkpt lat="48.03557" lon="7.01185">
        <ele>1322.53</ele>
        <time>2022-01-15T10:09:52Z</time>
      </trkpt>
      <trkpt lat="48.03556" lon="7.0118">
        <ele>1320.63</ele>
        <time>2022-01-15T10:10:01Z</time>
      </trkpt>
      <trkpt lat="48.03553" lon="7.01175">
        <ele>1318.49</ele>
        <time>2022-01-15T10:10:19Z</time>
      </trkpt>
      <trkpt lat="48.03541" lon="7.01164">
        <ele>1315.57</ele>
        <time>2022-01-15T10:10:37Z</time>
      </trkpt>
      <trkpt lat="48.03534" lon="7.01151">
        <ele>1312.34</ele>
        <time>2022-01-15T10:10:50Z</time>
      </trkpt>
      <trkpt lat="48.03528" lon="7.01143">
        <ele>1310.46</ele>
        <time>2022-01-15T10:10:59Z</time>
      </trkpt>
      <trkpt lat="48.03527" lon="7.01137">
        <ele>1310.15</ele>
        <time>2022-01-15T10:11:04Z</time>
      </trkpt>
      <trkpt lat="48.03513" lon="7.0112">
        <ele>1307.71</ele>
        <time>2022-01-15T10:11:23Z</time>
      </trkpt>
      <trkpt lat="48.03498" lon="7.01099">
        <ele>1306.67</ele>
        <time>2022-01-15T10:11:44Z</time>
      </trkpt>
      <trkpt lat="48.03488" lon="7.01078">
        <ele>1306</ele>
        <time>2022-01-15T10:12:01Z</time>
      </trkpt>
      <trkpt lat="48.03489" lon="7.01062">
        <ele>1304.46</ele>
        <time>2022-01-15T10:12:19Z</time>
      </trkpt>
      <trkpt lat="48.03491" lon="7.01054">
        <ele>1304.1</ele>
        <time>2022-01-15T10:12:25Z</time>
      </trkpt>
      <trkpt lat="48.03497" lon="7.01039">
        <ele>1302.65</ele>
        <time>2022-01-15T10:12:41Z</time>
      </trkpt>
      <trkpt lat="48.03497" lon="7.01036">
        <ele>1302.57</ele>
        <time>2022-01-15T10:12:43Z</time>
      </trkpt>
      <trkpt lat="48.03505" lon="7.01006">
        <ele>1300.58</ele>
        <time>2022-01-15T10:13:03Z</time>
      </trkpt>
      <trkpt lat="48.03508" lon="7.00975">
        <ele>1298.32</ele>
        <time>2022-01-15T10:13:23Z</time>
      </trkpt>
      <trkpt lat="48.03508" lon="7.00955">
        <ele>1296.47</ele>
        <time>2022-01-15T10:13:39Z</time>
      </trkpt>
      <trkpt lat="48.03508" lon="7.00955">
        <ele>1295.71</ele>
        <time>2022-01-15T10:13:56Z</time>
      </trkpt>
      <trkpt lat="48.0351" lon="7.00955">
        <ele>1295.1</ele>
        <time>2022-01-15T10:14:13Z</time>
      </trkpt>
      <trkpt lat="48.03508" lon="7.00954">
        <ele>1295.51</ele>
        <time>2022-01-15T10:14:34Z</time>
      </trkpt>
      <trkpt lat="48.03508" lon="7.00952">
        <ele>1295.63</ele>
        <time>2022-01-15T10:14:55Z</time>
      </trkpt>
      <trkpt lat="48.03507" lon="7.0095">
        <ele>1294.94</ele>
        <time>2022-01-15T10:15:45Z</time>
      </trkpt>
      <trkpt lat="48.03507" lon="7.00952">
        <ele>1295.12</ele>
        <time>2022-01-15T10:16:11Z</time>
      </trkpt>
      <trkpt lat="48.03504" lon="7.0094">
        <ele>1295.17</ele>
        <time>2022-01-15T10:16:47Z</time>
      </trkpt>
      <trkpt lat="48.035" lon="7.00916">
        <ele>1294.53</ele>
        <time>2022-01-15T10:17:06Z</time>
      </trkpt>
      <trkpt lat="48.03495" lon="7.00887">
        <ele>1293.94</ele>
        <time>2022-01-15T10:17:27Z</time>
      </trkpt>
      <trkpt lat="48.03489" lon="7.00859">
        <ele>1293.84</ele>
        <time>2022-01-15T10:17:49Z</time>
      </trkpt>
      <trkpt lat="48.03485" lon="7.00834">
        <ele>1293.7</ele>
        <time>2022-01-15T10:18:09Z</time>
      </trkpt>
      <trkpt lat="48.0348" lon="7.00806">
        <ele>1293.33</ele>
        <time>2022-01-15T10:18:30Z</time>
      </trkpt>
      <trkpt lat="48.03474" lon="7.00782">
        <ele>1292.98</ele>
        <time>2022-01-15T10:18:49Z</time>
      </trkpt>
      <trkpt lat="48.0347" lon="7.0076">
        <ele>1292.69</ele>
        <time>2022-01-15T10:19:06Z</time>
      </trkpt>
      <trkpt lat="48.03466" lon="7.00743">
        <ele>1292.7</ele>
        <time>2022-01-15T10:19:25Z</time>
      </trkpt>
      <trkpt lat="48.03461" lon="7.00727">
        <ele>1292.45</ele>
        <time>2022-01-15T10:19:41Z</time>
      </trkpt>
      <trkpt lat="48.03453" lon="7.00706">
        <ele>1292.32</ele>
        <time>2022-01-15T10:20:00Z</time>
      </trkpt>
      <trkpt lat="48.03448" lon="7.00685">
        <ele>1291.34</ele>
        <time>2022-01-15T10:20:20Z</time>
      </trkpt>
      <trkpt lat="48.03443" lon="7.00663">
        <ele>1291.02</ele>
        <time>2022-01-15T10:20:39Z</time>
      </trkpt>
      <trkpt lat="48.03437" lon="7.00653">
        <ele>1290.81</ele>
        <time>2022-01-15T10:20:51Z</time>
      </trkpt>
      <trkpt lat="48.03425" lon="7.00635">
        <ele>1292.6</ele>
        <time>2022-01-15T10:21:14Z</time>
      </trkpt>
      <trkpt lat="48.03423" lon="7.00616">
        <ele>1292.5</ele>
        <time>2022-01-15T10:21:31Z</time>
      </trkpt>
      <trkpt lat="48.03419" lon="7.00604">
        <ele>1292.33</ele>
        <time>2022-01-15T10:21:50Z</time>
      </trkpt>
      <trkpt lat="48.03411" lon="7.00581">
        <ele>1293.04</ele>
        <time>2022-01-15T10:22:12Z</time>
      </trkpt>
      <trkpt lat="48.03405" lon="7.00563">
        <ele>1293.54</ele>
        <time>2022-01-15T10:22:29Z</time>
      </trkpt>
      <trkpt lat="48.03397" lon="7.00543">
        <ele>1294.12</ele>
        <time>2022-01-15T10:22:49Z</time>
      </trkpt>
      <trkpt lat="48.03388" lon="7.00521">
        <ele>1294.79</ele>
        <time>2022-01-15T10:23:11Z</time>
      </trkpt>
      <trkpt lat="48.0338" lon="7.00497">
        <ele>1295.38</ele>
        <time>2022-01-15T10:23:33Z</time>
      </trkpt>
      <trkpt lat="48.03373" lon="7.00476">
        <ele>1295.3</ele>
        <time>2022-01-15T10:23:53Z</time>
      </trkpt>
      <trkpt lat="48.03373" lon="7.00475">
        <ele>1295.3</ele>
        <time>2022-01-15T10:23:54Z</time>
      </trkpt>
      <trkpt lat="48.0337" lon="7.00454">
        <ele>1295.14</ele>
        <time>2022-01-15T10:24:12Z</time>
      </trkpt>
      <trkpt lat="48.03366" lon="7.00424">
        <ele>1293.96</ele>
        <time>2022-01-15T10:24:32Z</time>
      </trkpt>
      <trkpt lat="48.03359" lon="7.00395">
        <ele>1293.42</ele>
        <time>2022-01-15T10:24:55Z</time>
      </trkpt>
      <trkpt lat="48.03357" lon="7.00381">
        <ele>1293.21</ele>
        <time>2022-01-15T10:25:07Z</time>
      </trkpt>
      <trkpt lat="48.03356" lon="7.00348">
        <ele>1291.65</ele>
        <time>2022-01-15T10:25:24Z</time>
      </trkpt>
      <trkpt lat="48.03356" lon="7.00347">
        <ele>1291.34</ele>
        <time>2022-01-15T10:25:25Z</time>
      </trkpt>
      <trkpt lat="48.03354" lon="7.00344">
        <ele>1290.57</ele>
        <time>2022-01-15T10:25:28Z</time>
      </trkpt>
      <trkpt lat="48.03349" lon="7.00329">
        <ele>1289.78</ele>
        <time>2022-01-15T10:25:42Z</time>
      </trkpt>
      <trkpt lat="48.03348" lon="7.00324">
        <ele>1289.64</ele>
        <time>2022-01-15T10:25:46Z</time>
      </trkpt>
      <trkpt lat="48.03342" lon="7.00298">
        <ele>1288.88</ele>
        <time>2022-01-15T10:26:03Z</time>
      </trkpt>
      <trkpt lat="48.0334" lon="7.00284">
        <ele>1288.64</ele>
        <time>2022-01-15T10:26:17Z</time>
      </trkpt>
      <trkpt lat="48.03342" lon="7.00283">
        <ele>1288.12</ele>
        <time>2022-01-15T10:26:47Z</time>
      </trkpt>
      <trkpt lat="48.03344" lon="7.00269">
        <ele>1286.29</ele>
        <time>2022-01-15T10:27:00Z</time>
      </trkpt>
      <trkpt lat="48.03339" lon="7.00252">
        <ele>1285.33</ele>
        <time>2022-01-15T10:27:17Z</time>
      </trkpt>
      <trkpt lat="48.0334" lon="7.00236">
        <ele>1284.88</ele>
        <time>2022-01-15T10:27:31Z</time>
      </trkpt>
      <trkpt lat="48.03339" lon="7.00234">
        <ele>1284.88</ele>
        <time>2022-01-15T10:27:33Z</time>
      </trkpt>
      <trkpt lat="48.03337" lon="7.00229">
        <ele>1284.94</ele>
        <time>2022-01-15T10:27:36Z</time>
      </trkpt>
      <trkpt lat="48.0333" lon="7.00209">
        <ele>1285.34</ele>
        <time>2022-01-15T10:27:51Z</time>
      </trkpt>
      <trkpt lat="48.03321" lon="7.0019">
        <ele>1285.46</ele>
        <time>2022-01-15T10:28:09Z</time>
      </trkpt>
      <trkpt lat="48.03317" lon="7.00179">
        <ele>1285.7</ele>
        <time>2022-01-15T10:28:21Z</time>
      </trkpt>
      <trkpt lat="48.03319" lon="7.00169">
        <ele>1285.89</ele>
        <time>2022-01-15T10:28:36Z</time>
      </trkpt>
      <trkpt lat="48.03316" lon="7.0015">
        <ele>1284.89</ele>
        <time>2022-01-15T10:28:53Z</time>
      </trkpt>
      <trkpt lat="48.03316" lon="7.00148">
        <ele>1284.27</ele>
        <time>2022-01-15T10:29:20Z</time>
      </trkpt>
      <trkpt lat="48.03316" lon="7.00145">
        <ele>1284.54</ele>
        <time>2022-01-15T10:29:42Z</time>
      </trkpt>
      <trkpt lat="48.03321" lon="7.00123">
        <ele>1283.74</ele>
        <time>2022-01-15T10:30:01Z</time>
      </trkpt>
      <trkpt lat="48.03321" lon="7.00095">
        <ele>1283.02</ele>
        <time>2022-01-15T10:30:20Z</time>
      </trkpt>
      <trkpt lat="48.03312" lon="7.00067">
        <ele>1282.83</ele>
        <time>2022-01-15T10:30:39Z</time>
      </trkpt>
      <trkpt lat="48.03305" lon="7.00037">
        <ele>1282.7</ele>
        <time>2022-01-15T10:30:57Z</time>
      </trkpt>
      <trkpt lat="48.03299" lon="7.00006">
        <ele>1282.2</ele>
        <time>2022-01-15T10:31:14Z</time>
      </trkpt>
      <trkpt lat="48.03295" lon="6.99978">
        <ele>1282.11</ele>
        <time>2022-01-15T10:31:30Z</time>
      </trkpt>
      <trkpt lat="48.0329" lon="6.99952">
        <ele>1283.68</ele>
        <time>2022-01-15T10:31:48Z</time>
      </trkpt>
      <trkpt lat="48.03288" lon="6.99924">
        <ele>1285.04</ele>
        <time>2022-01-15T10:32:07Z</time>
      </trkpt>
      <trkpt lat="48.03285" lon="6.999">
        <ele>1285.79</ele>
        <time>2022-01-15T10:32:24Z</time>
      </trkpt>
      <trkpt lat="48.03276" lon="6.99887">
        <ele>1286.41</ele>
        <time>2022-01-15T10:32:38Z</time>
      </trkpt>
      <trkpt lat="48.03262" lon="6.99889">
        <ele>1287.03</ele>
        <time>2022-01-15T10:32:54Z</time>
      </trkpt>
      <trkpt lat="48.03257" lon="6.99889">
        <ele>1287.15</ele>
        <time>2022-01-15T10:33:12Z</time>
      </trkpt>
      <trkpt lat="48.03256" lon="6.9989">
        <ele>1287.05</ele>
        <time>2022-01-15T10:33:27Z</time>
      </trkpt>
      <trkpt lat="48.03256" lon="6.99891">
        <ele>1286.92</ele>
        <time>2022-01-15T10:35:22Z</time>
      </trkpt>
      <trkpt lat="48.03255" lon="6.99891">
        <ele>1286.59</ele>
        <time>2022-01-15T10:36:53Z</time>
      </trkpt>
      <trkpt lat="48.03255" lon="6.9989">
        <ele>1287.75</ele>
        <time>2022-01-15T10:38:04Z</time>
      </trkpt>
      <trkpt lat="48.03256" lon="6.9989">
        <ele>1287.5</ele>
        <time>2022-01-15T10:38:39Z</time>
      </trkpt>
      <trkpt lat="48.03256" lon="6.9989">
        <ele>1287.71</ele>
        <time>2022-01-15T10:38:56Z</time>
      </trkpt>
      <trkpt lat="48.03254" lon="6.9989">
        <ele>1287.68</ele>
        <time>2022-01-15T10:39:19Z</time>
      </trkpt>
      <trkpt lat="48.03255" lon="6.99892">
        <ele>1287.94</ele>
        <time>2022-01-15T10:39:56Z</time>
      </trkpt>
      <trkpt lat="48.03255" lon="6.99891">
        <ele>1288</ele>
        <time>2022-01-15T10:40:23Z</time>
      </trkpt>
      <trkpt lat="48.03254" lon="6.9989">
        <ele>1287.52</ele>
        <time>2022-01-15T10:40:58Z</time>
      </trkpt>
      <trkpt lat="48.03253" lon="6.99887">
        <ele>1287.48</ele>
        <time>2022-01-15T10:41:09Z</time>
      </trkpt>
      <trkpt lat="48.03249" lon="6.99879">
        <ele>1287.56</ele>
        <time>2022-01-15T10:41:13Z</time>
      </trkpt>
      <trkpt lat="48.03234" lon="6.9983">
        <ele>1286.62</ele>
        <time>2022-01-15T10:41:28Z</time>
      </trkpt>
      <trkpt lat="48.03231" lon="6.99812">
        <ele>1286.07</ele>
        <time>2022-01-15T10:41:33Z</time>
      </trkpt>
      <trkpt lat="48.03218" lon="6.99775">
        <ele>1284.64</ele>
        <time>2022-01-15T10:41:41Z</time>
      </trkpt>
      <trkpt lat="48.03216" lon="6.99771">
        <ele>1284.52</ele>
        <time>2022-01-15T10:41:42Z</time>
      </trkpt>
      <trkpt lat="48.03215" lon="6.9976">
        <ele>1284.36</ele>
        <time>2022-01-15T10:41:44Z</time>
      </trkpt>
      <trkpt lat="48.03201" lon="6.99717">
        <ele>1280.38</ele>
        <time>2022-01-15T10:41:52Z</time>
      </trkpt>
      <trkpt lat="48.03195" lon="6.99685">
        <ele>1277.39</ele>
        <time>2022-01-15T10:41:57Z</time>
      </trkpt>
      <trkpt lat="48.03191" lon="6.99658">
        <ele>1274.34</ele>
        <time>2022-01-15T10:42:01Z</time>
      </trkpt>
      <trkpt lat="48.0318" lon="6.9964">
        <ele>1270.86</ele>
        <time>2022-01-15T10:42:05Z</time>
      </trkpt>
      <trkpt lat="48.03175" lon="6.99624">
        <ele>1268.73</ele>
        <time>2022-01-15T10:42:08Z</time>
      </trkpt>
      <trkpt lat="48.03165" lon="6.99613">
        <ele>1264.03</ele>
        <time>2022-01-15T10:42:13Z</time>
      </trkpt>
      <trkpt lat="48.03165" lon="6.99613">
        <ele>1260.59</ele>
        <time>2022-01-15T10:42:17Z</time>
      </trkpt>
      <trkpt lat="48.03165" lon="6.99612">
        <ele>1257.14</ele>
        <time>2022-01-15T10:42:21Z</time>
      </trkpt>
      <trkpt lat="48.03164" lon="6.99612">
        <ele>1256.23</ele>
        <time>2022-01-15T10:42:40Z</time>
      </trkpt>
      <trkpt lat="48.03158" lon="6.99583">
        <ele>1256.12</ele>
        <time>2022-01-15T10:42:47Z</time>
      </trkpt>
      <trkpt lat="48.03152" lon="6.99541">
        <ele>1255.57</ele>
        <time>2022-01-15T10:42:53Z</time>
      </trkpt>
      <trkpt lat="48.03146" lon="6.99514">
        <ele>1251.33</ele>
        <time>2022-01-15T10:42:58Z</time>
      </trkpt>
      <trkpt lat="48.03142" lon="6.99505">
        <ele>1250.29</ele>
        <time>2022-01-15T10:43:00Z</time>
      </trkpt>
      <trkpt lat="48.03138" lon="6.99496">
        <ele>1246.6</ele>
        <time>2022-01-15T10:43:02Z</time>
      </trkpt>
      <trkpt lat="48.03133" lon="6.99487">
        <ele>1245.22</ele>
        <time>2022-01-15T10:43:04Z</time>
      </trkpt>
      <trkpt lat="48.03128" lon="6.99472">
        <ele>1242.78</ele>
        <time>2022-01-15T10:43:07Z</time>
      </trkpt>
      <trkpt lat="48.03121" lon="6.99443">
        <ele>1238.58</ele>
        <time>2022-01-15T10:43:12Z</time>
      </trkpt>
      <trkpt lat="48.03113" lon="6.99411">
        <ele>1235.45</ele>
        <time>2022-01-15T10:43:17Z</time>
      </trkpt>
      <trkpt lat="48.03111" lon="6.99405">
        <ele>1234.79</ele>
        <time>2022-01-15T10:43:18Z</time>
      </trkpt>
      <trkpt lat="48.0311" lon="6.99399">
        <ele>1234.17</ele>
        <time>2022-01-15T10:43:19Z</time>
      </trkpt>
      <trkpt lat="48.0311" lon="6.99392">
        <ele>1233.6</ele>
        <time>2022-01-15T10:43:20Z</time>
      </trkpt>
      <trkpt lat="48.03108" lon="6.99386">
        <ele>1232.81</ele>
        <time>2022-01-15T10:43:21Z</time>
      </trkpt>
      <trkpt lat="48.03105" lon="6.99365">
        <ele>1230.83</ele>
        <time>2022-01-15T10:43:24Z</time>
      </trkpt>
      <trkpt lat="48.03104" lon="6.99344">
        <ele>1227.8</ele>
        <time>2022-01-15T10:43:27Z</time>
      </trkpt>
      <trkpt lat="48.03098" lon="6.99318">
        <ele>1224.72</ele>
        <time>2022-01-15T10:43:31Z</time>
      </trkpt>
      <trkpt lat="48.031" lon="6.99306">
        <ele>1222.49</ele>
        <time>2022-01-15T10:43:34Z</time>
      </trkpt>
      <trkpt lat="48.031" lon="6.99301">
        <ele>1218.88</ele>
        <time>2022-01-15T10:43:39Z</time>
      </trkpt>
      <trkpt lat="48.03098" lon="6.99302">
        <ele>1216.01</ele>
        <time>2022-01-15T10:43:56Z</time>
      </trkpt>
      <trkpt lat="48.0309" lon="6.99269">
        <ele>1215.89</ele>
        <time>2022-01-15T10:44:04Z</time>
      </trkpt>
      <trkpt lat="48.03091" lon="6.99236">
        <ele>1214.93</ele>
        <time>2022-01-15T10:44:09Z</time>
      </trkpt>
      <trkpt lat="48.03089" lon="6.99202">
        <ele>1210.68</ele>
        <time>2022-01-15T10:44:14Z</time>
      </trkpt>
      <trkpt lat="48.03077" lon="6.9918">
        <ele>1207.06</ele>
        <time>2022-01-15T10:44:18Z</time>
      </trkpt>
      <trkpt lat="48.03078" lon="6.99161">
        <ele>1203.51</ele>
        <time>2022-01-15T10:44:21Z</time>
      </trkpt>
      <trkpt lat="48.03073" lon="6.99143">
        <ele>1199.92</ele>
        <time>2022-01-15T10:44:24Z</time>
      </trkpt>
      <trkpt lat="48.03075" lon="6.99124">
        <ele>1196.6</ele>
        <time>2022-01-15T10:44:27Z</time>
      </trkpt>
      <trkpt lat="48.03077" lon="6.99113">
        <ele>1193.13</ele>
        <time>2022-01-15T10:44:30Z</time>
      </trkpt>
      <trkpt lat="48.03077" lon="6.99112">
        <ele>1189.17</ele>
        <time>2022-01-15T10:44:34Z</time>
      </trkpt>
      <trkpt lat="48.03076" lon="6.99113">
        <ele>1185.84</ele>
        <time>2022-01-15T10:44:37Z</time>
      </trkpt>
      <trkpt lat="48.03076" lon="6.99113">
        <ele>1182.71</ele>
        <time>2022-01-15T10:44:40Z</time>
      </trkpt>
      <trkpt lat="48.03075" lon="6.99113">
        <ele>1182.26</ele>
        <time>2022-01-15T10:45:02Z</time>
      </trkpt>
      <trkpt lat="48.03079" lon="6.99105">
        <ele>1182.3</ele>
        <time>2022-01-15T10:45:06Z</time>
      </trkpt>
      <trkpt lat="48.03066" lon="6.99088">
        <ele>1181.62</ele>
        <time>2022-01-15T10:45:14Z</time>
      </trkpt>
      <trkpt lat="48.03065" lon="6.99066">
        <ele>1178.58</ele>
        <time>2022-01-15T10:45:20Z</time>
      </trkpt>
      <trkpt lat="48.03063" lon="6.99055">
        <ele>1178</ele>
        <time>2022-01-15T10:45:22Z</time>
      </trkpt>
      <trkpt lat="48.03064" lon="6.99046">
        <ele>1176.6</ele>
        <time>2022-01-15T10:45:24Z</time>
      </trkpt>
      <trkpt lat="48.03058" lon="6.99037">
        <ele>1173.11</ele>
        <time>2022-01-15T10:45:27Z</time>
      </trkpt>
      <trkpt lat="48.03055" lon="6.99019">
        <ele>1169.07</ele>
        <time>2022-01-15T10:45:31Z</time>
      </trkpt>
      <trkpt lat="48.03055" lon="6.99013">
        <ele>1167.95</ele>
        <time>2022-01-15T10:45:32Z</time>
      </trkpt>
      <trkpt lat="48.03047" lon="6.99002">
        <ele>1165.14</ele>
        <time>2022-01-15T10:45:35Z</time>
      </trkpt>
      <trkpt lat="48.03044" lon="6.98984">
        <ele>1162.08</ele>
        <time>2022-01-15T10:45:38Z</time>
      </trkpt>
      <trkpt lat="48.03044" lon="6.9898">
        <ele>1160.79</ele>
        <time>2022-01-15T10:45:39Z</time>
      </trkpt>
      <trkpt lat="48.03045" lon="6.98976">
        <ele>1159.81</ele>
        <time>2022-01-15T10:45:40Z</time>
      </trkpt>
      <trkpt lat="48.03045" lon="6.98972">
        <ele>1158.59</ele>
        <time>2022-01-15T10:45:41Z</time>
      </trkpt>
      <trkpt lat="48.03042" lon="6.98969">
        <ele>1157.07</ele>
        <time>2022-01-15T10:45:42Z</time>
      </trkpt>
      <trkpt lat="48.03038" lon="6.98969">
        <ele>1155.69</ele>
        <time>2022-01-15T10:45:43Z</time>
      </trkpt>
      <trkpt lat="48.03033" lon="6.98969">
        <ele>1153.86</ele>
        <time>2022-01-15T10:45:45Z</time>
      </trkpt>
      <trkpt lat="48.03028" lon="6.98958">
        <ele>1148.8</ele>
        <time>2022-01-15T10:45:49Z</time>
      </trkpt>
      <trkpt lat="48.0303" lon="6.98949">
        <ele>1145.51</ele>
        <time>2022-01-15T10:45:51Z</time>
      </trkpt>
      <trkpt lat="48.0302" lon="6.98934">
        <ele>1141.56</ele>
        <time>2022-01-15T10:45:56Z</time>
      </trkpt>
      <trkpt lat="48.03014" lon="6.98919">
        <ele>1138.08</ele>
        <time>2022-01-15T10:46:00Z</time>
      </trkpt>
      <trkpt lat="48.03008" lon="6.9891">
        <ele>1135.23</ele>
        <time>2022-01-15T10:46:03Z</time>
      </trkpt>
      <trkpt lat="48.03003" lon="6.98891">
        <ele>1130.04</ele>
        <time>2022-01-15T10:46:08Z</time>
      </trkpt>
      <trkpt lat="48.03005" lon="6.98871">
        <ele>1125.21</ele>
        <time>2022-01-15T10:46:12Z</time>
      </trkpt>
      <trkpt lat="48.03003" lon="6.98854">
        <ele>1120.76</ele>
        <time>2022-01-15T10:46:15Z</time>
      </trkpt>
      <trkpt lat="48.03008" lon="6.98837">
        <ele>1117.34</ele>
        <time>2022-01-15T10:46:18Z</time>
      </trkpt>
      <trkpt lat="48.03006" lon="6.98813">
        <ele>1114.33</ele>
        <time>2022-01-15T10:46:21Z</time>
      </trkpt>
      <trkpt lat="48.03009" lon="6.98799">
        <ele>1112.23</ele>
        <time>2022-01-15T10:46:23Z</time>
      </trkpt>
      <trkpt lat="48.03015" lon="6.98758">
        <ele>1108.17</ele>
        <time>2022-01-15T10:46:27Z</time>
      </trkpt>
      <trkpt lat="48.03021" lon="6.98726">
        <ele>1104.99</ele>
        <time>2022-01-15T10:46:30Z</time>
      </trkpt>
      <trkpt lat="48.03022" lon="6.98717">
        <ele>1103.93</ele>
        <time>2022-01-15T10:46:31Z</time>
      </trkpt>
      <trkpt lat="48.03024" lon="6.98684">
        <ele>1101.01</ele>
        <time>2022-01-15T10:46:35Z</time>
      </trkpt>
      <trkpt lat="48.03026" lon="6.98643">
        <ele>1097.91</ele>
        <time>2022-01-15T10:46:40Z</time>
      </trkpt>
      <trkpt lat="48.03024" lon="6.98619">
        <ele>1097.44</ele>
        <time>2022-01-15T10:46:43Z</time>
      </trkpt>
      <trkpt lat="48.03022" lon="6.98612">
        <ele>1097.28</ele>
        <time>2022-01-15T10:46:44Z</time>
      </trkpt>
      <trkpt lat="48.0302" lon="6.98607">
        <ele>1097.09</ele>
        <time>2022-01-15T10:46:45Z</time>
      </trkpt>
      <trkpt lat="48.03016" lon="6.98603">
        <ele>1096.4</ele>
        <time>2022-01-15T10:46:47Z</time>
      </trkpt>
      <trkpt lat="48.03004" lon="6.98597">
        <ele>1095.3</ele>
        <time>2022-01-15T10:47:00Z</time>
      </trkpt>
      <trkpt lat="48.02992" lon="6.98606">
        <ele>1095.78</ele>
        <time>2022-01-15T10:47:11Z</time>
      </trkpt>
      <trkpt lat="48.0299" lon="6.98608">
        <ele>1095.69</ele>
        <time>2022-01-15T10:47:56Z</time>
      </trkpt>
      <trkpt lat="48.02989" lon="6.9861">
        <ele>1094.75</ele>
        <time>2022-01-15T10:48:53Z</time>
      </trkpt>
      <trkpt lat="48.02985" lon="6.98612">
        <ele>1094.84</ele>
        <time>2022-01-15T10:51:20Z</time>
      </trkpt>
      <trkpt lat="48.02986" lon="6.98612">
        <ele>1095.84</ele>
        <time>2022-01-15T10:51:44Z</time>
      </trkpt>
      <trkpt lat="48.02988" lon="6.98612">
        <ele>1095.87</ele>
        <time>2022-01-15T10:52:12Z</time>
      </trkpt>
      <trkpt lat="48.0299" lon="6.98609">
        <ele>1096.1</ele>
        <time>2022-01-15T10:52:53Z</time>
      </trkpt>
      <trkpt lat="48.0299" lon="6.98609">
        <ele>1096.04</ele>
        <time>2022-01-15T10:53:11Z</time>
      </trkpt>
      <trkpt lat="48.02987" lon="6.98612">
        <ele>1096.03</ele>
        <time>2022-01-15T10:53:24Z</time>
      </trkpt>
      <trkpt lat="48.02982" lon="6.98618">
        <ele>1096.64</ele>
        <time>2022-01-15T10:53:33Z</time>
      </trkpt>
      <trkpt lat="48.02979" lon="6.98621">
        <ele>1097.43</ele>
        <time>2022-01-15T10:53:50Z</time>
      </trkpt>
      <trkpt lat="48.02976" lon="6.98625">
        <ele>1097.42</ele>
        <time>2022-01-15T10:54:36Z</time>
      </trkpt>
      <trkpt lat="48.02967" lon="6.98641">
        <ele>1098.49</ele>
        <time>2022-01-15T10:54:53Z</time>
      </trkpt>
      <trkpt lat="48.02952" lon="6.98653">
        <ele>1101.58</ele>
        <time>2022-01-15T10:55:15Z</time>
      </trkpt>
      <trkpt lat="48.02943" lon="6.98661">
        <ele>1104.71</ele>
        <time>2022-01-15T10:55:32Z</time>
      </trkpt>
      <trkpt lat="48.02931" lon="6.98671">
        <ele>1107.85</ele>
        <time>2022-01-15T10:55:52Z</time>
      </trkpt>
      <trkpt lat="48.02926" lon="6.98685">
        <ele>1110.88</ele>
        <time>2022-01-15T10:56:11Z</time>
      </trkpt>
      <trkpt lat="48.02919" lon="6.98703">
        <ele>1114.05</ele>
        <time>2022-01-15T10:56:33Z</time>
      </trkpt>
      <trkpt lat="48.02909" lon="6.98717">
        <ele>1117.24</ele>
        <time>2022-01-15T10:56:53Z</time>
      </trkpt>
      <trkpt lat="48.02894" lon="6.98731">
        <ele>1120.34</ele>
        <time>2022-01-15T10:57:15Z</time>
      </trkpt>
      <trkpt lat="48.02887" lon="6.98743">
        <ele>1122.83</ele>
        <time>2022-01-15T10:57:38Z</time>
      </trkpt>
      <trkpt lat="48.02879" lon="6.98755">
        <ele>1123.87</ele>
        <time>2022-01-15T10:58:11Z</time>
      </trkpt>
      <trkpt lat="48.02878" lon="6.98765">
        <ele>1126.78</ele>
        <time>2022-01-15T10:58:34Z</time>
      </trkpt>
      <trkpt lat="48.02865" lon="6.98781">
        <ele>1128.99</ele>
        <time>2022-01-15T10:59:02Z</time>
      </trkpt>
      <trkpt lat="48.02855" lon="6.98796">
        <ele>1132.14</ele>
        <time>2022-01-15T10:59:23Z</time>
      </trkpt>
      <trkpt lat="48.02851" lon="6.98809">
        <ele>1135.28</ele>
        <time>2022-01-15T10:59:41Z</time>
      </trkpt>
      <trkpt lat="48.02841" lon="6.98828">
        <ele>1138.3</ele>
        <time>2022-01-15T11:00:05Z</time>
      </trkpt>
      <trkpt lat="48.02833" lon="6.98841">
        <ele>1141.36</ele>
        <time>2022-01-15T11:00:23Z</time>
      </trkpt>
      <trkpt lat="48.02827" lon="6.98855">
        <ele>1144.55</ele>
        <time>2022-01-15T11:00:39Z</time>
      </trkpt>
      <trkpt lat="48.02821" lon="6.98871">
        <ele>1147.68</ele>
        <time>2022-01-15T11:00:59Z</time>
      </trkpt>
      <trkpt lat="48.02818" lon="6.98884">
        <ele>1150.8</ele>
        <time>2022-01-15T11:01:18Z</time>
      </trkpt>
      <trkpt lat="48.02811" lon="6.98903">
        <ele>1154.01</ele>
        <time>2022-01-15T11:01:38Z</time>
      </trkpt>
      <trkpt lat="48.028" lon="6.98921">
        <ele>1157.05</ele>
        <time>2022-01-15T11:02:00Z</time>
      </trkpt>
      <trkpt lat="48.02789" lon="6.9894">
        <ele>1160.14</ele>
        <time>2022-01-15T11:02:24Z</time>
      </trkpt>
      <trkpt lat="48.02777" lon="6.98962">
        <ele>1163.12</ele>
        <time>2022-01-15T11:02:51Z</time>
      </trkpt>
      <trkpt lat="48.02755" lon="6.98981">
        <ele>1164.82</ele>
        <time>2022-01-15T11:03:19Z</time>
      </trkpt>
      <trkpt lat="48.0274" lon="6.99004">
        <ele>1166.6</ele>
        <time>2022-01-15T11:03:46Z</time>
      </trkpt>
      <trkpt lat="48.02725" lon="6.99024">
        <ele>1168.38</ele>
        <time>2022-01-15T11:04:12Z</time>
      </trkpt>
      <trkpt lat="48.02705" lon="6.9904">
        <ele>1170.33</ele>
        <time>2022-01-15T11:04:36Z</time>
      </trkpt>
      <trkpt lat="48.02697" lon="6.9905">
        <ele>1172.38</ele>
        <time>2022-01-15T11:05:05Z</time>
      </trkpt>
      <trkpt lat="48.02686" lon="6.99065">
        <ele>1174.13</ele>
        <time>2022-01-15T11:05:24Z</time>
      </trkpt>
      <trkpt lat="48.02672" lon="6.99083">
        <ele>1176.72</ele>
        <time>2022-01-15T11:05:49Z</time>
      </trkpt>
      <trkpt lat="48.02661" lon="6.99097">
        <ele>1179.31</ele>
        <time>2022-01-15T11:06:10Z</time>
      </trkpt>
      <trkpt lat="48.02652" lon="6.99108">
        <ele>1182.32</ele>
        <time>2022-01-15T11:06:30Z</time>
      </trkpt>
      <trkpt lat="48.02638" lon="6.99111">
        <ele>1185.37</ele>
        <time>2022-01-15T11:06:51Z</time>
      </trkpt>
      <trkpt lat="48.02631" lon="6.9912">
        <ele>1188.46</ele>
        <time>2022-01-15T11:07:09Z</time>
      </trkpt>
      <trkpt lat="48.02629" lon="6.99136">
        <ele>1191.52</ele>
        <time>2022-01-15T11:07:27Z</time>
      </trkpt>
      <trkpt lat="48.02626" lon="6.99151">
        <ele>1194.07</ele>
        <time>2022-01-15T11:07:46Z</time>
      </trkpt>
      <trkpt lat="48.02622" lon="6.99167">
        <ele>1196.84</ele>
        <time>2022-01-15T11:08:06Z</time>
      </trkpt>
      <trkpt lat="48.02614" lon="6.99175">
        <ele>1199.85</ele>
        <time>2022-01-15T11:08:25Z</time>
      </trkpt>
      <trkpt lat="48.02601" lon="6.99178">
        <ele>1202.87</ele>
        <time>2022-01-15T11:08:47Z</time>
      </trkpt>
      <trkpt lat="48.02589" lon="6.99178">
        <ele>1206.01</ele>
        <time>2022-01-15T11:09:08Z</time>
      </trkpt>
      <trkpt lat="48.02584" lon="6.99187">
        <ele>1208.87</ele>
        <time>2022-01-15T11:09:28Z</time>
      </trkpt>
      <trkpt lat="48.02578" lon="6.99199">
        <ele>1211.95</ele>
        <time>2022-01-15T11:09:49Z</time>
      </trkpt>
      <trkpt lat="48.02571" lon="6.99208">
        <ele>1215.04</ele>
        <time>2022-01-15T11:10:07Z</time>
      </trkpt>
      <trkpt lat="48.02558" lon="6.99219">
        <ele>1218.04</ele>
        <time>2022-01-15T11:10:30Z</time>
      </trkpt>
      <trkpt lat="48.02545" lon="6.99221">
        <ele>1221.17</ele>
        <time>2022-01-15T11:10:52Z</time>
      </trkpt>
      <trkpt lat="48.02537" lon="6.9922">
        <ele>1224.14</ele>
        <time>2022-01-15T11:11:09Z</time>
      </trkpt>
      <trkpt lat="48.02523" lon="6.99219">
        <ele>1227.18</ele>
        <time>2022-01-15T11:11:32Z</time>
      </trkpt>
      <trkpt lat="48.0251" lon="6.99218">
        <ele>1229.86</ele>
        <time>2022-01-15T11:11:54Z</time>
      </trkpt>
      <trkpt lat="48.02502" lon="6.99217">
        <ele>1232.87</ele>
        <time>2022-01-15T11:12:15Z</time>
      </trkpt>
      <trkpt lat="48.02496" lon="6.99217">
        <ele>1234.19</ele>
        <time>2022-01-15T11:13:05Z</time>
      </trkpt>
      <trkpt lat="48.02485" lon="6.99217">
        <ele>1237.06</ele>
        <time>2022-01-15T11:13:27Z</time>
      </trkpt>
      <trkpt lat="48.02472" lon="6.99219">
        <ele>1239.84</ele>
        <time>2022-01-15T11:13:51Z</time>
      </trkpt>
      <trkpt lat="48.02459" lon="6.99219">
        <ele>1242.97</ele>
        <time>2022-01-15T11:14:14Z</time>
      </trkpt>
      <trkpt lat="48.02455" lon="6.99218">
        <ele>1245.64</ele>
        <time>2022-01-15T11:14:33Z</time>
      </trkpt>
      <trkpt lat="48.0245" lon="6.9922">
        <ele>1246.76</ele>
        <time>2022-01-15T11:14:56Z</time>
      </trkpt>
      <trkpt lat="48.02437" lon="6.99224">
        <ele>1249</ele>
        <time>2022-01-15T11:15:19Z</time>
      </trkpt>
      <trkpt lat="48.02423" lon="6.99224">
        <ele>1251.52</ele>
        <time>2022-01-15T11:15:40Z</time>
      </trkpt>
      <trkpt lat="48.02412" lon="6.99229">
        <ele>1254.56</ele>
        <time>2022-01-15T11:15:59Z</time>
      </trkpt>
      <trkpt lat="48.02404" lon="6.99238">
        <ele>1257.73</ele>
        <time>2022-01-15T11:16:17Z</time>
      </trkpt>
      <trkpt lat="48.02403" lon="6.99257">
        <ele>1259.49</ele>
        <time>2022-01-15T11:16:36Z</time>
      </trkpt>
      <trkpt lat="48.02402" lon="6.99275">
        <ele>1262.59</ele>
        <time>2022-01-15T11:16:58Z</time>
      </trkpt>
      <trkpt lat="48.024" lon="6.99289">
        <ele>1265.14</ele>
        <time>2022-01-15T11:17:16Z</time>
      </trkpt>
      <trkpt lat="48.02396" lon="6.99296">
        <ele>1267.86</ele>
        <time>2022-01-15T11:17:33Z</time>
      </trkpt>
      <trkpt lat="48.02387" lon="6.99302">
        <ele>1269.54</ele>
        <time>2022-01-15T11:17:56Z</time>
      </trkpt>
      <trkpt lat="48.02375" lon="6.99311">
        <ele>1272.5</ele>
        <time>2022-01-15T11:18:18Z</time>
      </trkpt>
      <trkpt lat="48.02366" lon="6.9932">
        <ele>1275.59</ele>
        <time>2022-01-15T11:18:39Z</time>
      </trkpt>
      <trkpt lat="48.02356" lon="6.99332">
        <ele>1278.73</ele>
        <time>2022-01-15T11:19:02Z</time>
      </trkpt>
      <trkpt lat="48.02354" lon="6.99348">
        <ele>1281.85</ele>
        <time>2022-01-15T11:19:23Z</time>
      </trkpt>
      <trkpt lat="48.02352" lon="6.99364">
        <ele>1284.97</ele>
        <time>2022-01-15T11:19:46Z</time>
      </trkpt>
      <trkpt lat="48.02351" lon="6.99378">
        <ele>1287.35</ele>
        <time>2022-01-15T11:20:05Z</time>
      </trkpt>
      <trkpt lat="48.02348" lon="6.99394">
        <ele>1290.3</ele>
        <time>2022-01-15T11:20:27Z</time>
      </trkpt>
      <trkpt lat="48.02339" lon="6.99402">
        <ele>1293.33</ele>
        <time>2022-01-15T11:20:47Z</time>
      </trkpt>
      <trkpt lat="48.02329" lon="6.99406">
        <ele>1296.41</ele>
        <time>2022-01-15T11:21:06Z</time>
      </trkpt>
      <trkpt lat="48.02328" lon="6.99421">
        <ele>1299.13</ele>
        <time>2022-01-15T11:21:26Z</time>
      </trkpt>
      <trkpt lat="48.02332" lon="6.9944">
        <ele>1302.13</ele>
        <time>2022-01-15T11:21:56Z</time>
      </trkpt>
      <trkpt lat="48.02329" lon="6.99457">
        <ele>1305.18</ele>
        <time>2022-01-15T11:22:22Z</time>
      </trkpt>
      <trkpt lat="48.02323" lon="6.99468">
        <ele>1308.26</ele>
        <time>2022-01-15T11:22:45Z</time>
      </trkpt>
      <trkpt lat="48.02317" lon="6.99474">
        <ele>1310.74</ele>
        <time>2022-01-15T11:23:05Z</time>
      </trkpt>
      <trkpt lat="48.02316" lon="6.99477">
        <ele>1310.95</ele>
        <time>2022-01-15T11:23:08Z</time>
      </trkpt>
      <trkpt lat="48.02311" lon="6.99489">
        <ele>1314.03</ele>
        <time>2022-01-15T11:23:31Z</time>
      </trkpt>
      <trkpt lat="48.02308" lon="6.99507">
        <ele>1317.08</ele>
        <time>2022-01-15T11:23:55Z</time>
      </trkpt>
      <trkpt lat="48.02293" lon="6.9952">
        <ele>1320.03</ele>
        <time>2022-01-15T11:24:17Z</time>
      </trkpt>
      <trkpt lat="48.02285" lon="6.99531">
        <ele>1322.36</ele>
        <time>2022-01-15T11:24:36Z</time>
      </trkpt>
      <trkpt lat="48.02284" lon="6.99548">
        <ele>1324.93</ele>
        <time>2022-01-15T11:24:56Z</time>
      </trkpt>
      <trkpt lat="48.02282" lon="6.99566">
        <ele>1327.99</ele>
        <time>2022-01-15T11:25:18Z</time>
      </trkpt>
      <trkpt lat="48.02277" lon="6.99583">
        <ele>1330.74</ele>
        <time>2022-01-15T11:25:42Z</time>
      </trkpt>
      <trkpt lat="48.0227" lon="6.99595">
        <ele>1333.31</ele>
        <time>2022-01-15T11:26:01Z</time>
      </trkpt>
      <trkpt lat="48.0226" lon="6.99609">
        <ele>1336.11</ele>
        <time>2022-01-15T11:26:23Z</time>
      </trkpt>
      <trkpt lat="48.02248" lon="6.99622">
        <ele>1338.77</ele>
        <time>2022-01-15T11:26:47Z</time>
      </trkpt>
      <trkpt lat="48.02247" lon="6.99641">
        <ele>1341.68</ele>
        <time>2022-01-15T11:27:08Z</time>
      </trkpt>
      <trkpt lat="48.02245" lon="6.99661">
        <ele>1344.53</ele>
        <time>2022-01-15T11:27:31Z</time>
      </trkpt>
      <trkpt lat="48.02241" lon="6.99674">
        <ele>1347.12</ele>
        <time>2022-01-15T11:27:50Z</time>
      </trkpt>
      <trkpt lat="48.02234" lon="6.99689">
        <ele>1350.16</ele>
        <time>2022-01-15T11:28:10Z</time>
      </trkpt>
      <trkpt lat="48.02227" lon="6.99705">
        <ele>1353.16</ele>
        <time>2022-01-15T11:28:33Z</time>
      </trkpt>
      <trkpt lat="48.02222" lon="6.99719">
        <ele>1355.73</ele>
        <time>2022-01-15T11:28:51Z</time>
      </trkpt>
      <trkpt lat="48.02214" lon="6.99737">
        <ele>1358.71</ele>
        <time>2022-01-15T11:29:14Z</time>
      </trkpt>
      <trkpt lat="48.02207" lon="6.99753">
        <ele>1361.38</ele>
        <time>2022-01-15T11:29:35Z</time>
      </trkpt>
      <trkpt lat="48.02201" lon="6.99766">
        <ele>1363.33</ele>
        <time>2022-01-15T11:29:53Z</time>
      </trkpt>
      <trkpt lat="48.02193" lon="6.99782">
        <ele>1364.94</ele>
        <time>2022-01-15T11:30:14Z</time>
      </trkpt>
      <trkpt lat="48.02184" lon="6.99803">
        <ele>1367.69</ele>
        <time>2022-01-15T11:30:38Z</time>
      </trkpt>
      <trkpt lat="48.02177" lon="6.9982">
        <ele>1370.61</ele>
        <time>2022-01-15T11:30:58Z</time>
      </trkpt>
      <trkpt lat="48.02166" lon="6.99836">
        <ele>1372.45</ele>
        <time>2022-01-15T11:31:19Z</time>
      </trkpt>
      <trkpt lat="48.02154" lon="6.99847">
        <ele>1373.83</ele>
        <time>2022-01-15T11:31:38Z</time>
      </trkpt>
      <trkpt lat="48.02142" lon="6.99857">
        <ele>1374.85</ele>
        <time>2022-01-15T11:31:56Z</time>
      </trkpt>
      <trkpt lat="48.02128" lon="6.99869">
        <ele>1376.03</ele>
        <time>2022-01-15T11:32:16Z</time>
      </trkpt>
      <trkpt lat="48.02113" lon="6.99882">
        <ele>1377.38</ele>
        <time>2022-01-15T11:32:37Z</time>
      </trkpt>
      <trkpt lat="48.02099" lon="6.99897">
        <ele>1378.2</ele>
        <time>2022-01-15T11:32:57Z</time>
      </trkpt>
      <trkpt lat="48.02086" lon="6.99905">
        <ele>1378.66</ele>
        <time>2022-01-15T11:33:15Z</time>
      </trkpt>
      <trkpt lat="48.02072" lon="6.99918">
        <ele>1378.98</ele>
        <time>2022-01-15T11:33:36Z</time>
      </trkpt>
      <trkpt lat="48.02061" lon="6.99927">
        <ele>1378.66</ele>
        <time>2022-01-15T11:33:56Z</time>
      </trkpt>
      <trkpt lat="48.0206" lon="6.99926">
        <ele>1378.14</ele>
        <time>2022-01-15T11:34:31Z</time>
      </trkpt>
      <trkpt lat="48.0206" lon="6.99927">
        <ele>1377.49</ele>
        <time>2022-01-15T11:34:58Z</time>
      </trkpt>
      <trkpt lat="48.02058" lon="6.99928">
        <ele>1377.58</ele>
        <time>2022-01-15T11:35:13Z</time>
      </trkpt>
      <trkpt lat="48.02057" lon="6.99931">
        <ele>1376.98</ele>
        <time>2022-01-15T11:35:29Z</time>
      </trkpt>
      <trkpt lat="48.02057" lon="6.99931">
        <ele>1376.56</ele>
        <time>2022-01-15T11:36:00Z</time>
      </trkpt>
      <trkpt lat="48.02058" lon="6.99929">
        <ele>1376.58</ele>
        <time>2022-01-15T11:36:02Z</time>
      </trkpt>
      <trkpt lat="48.02059" lon="6.99929">
        <ele>1376.93</ele>
        <time>2022-01-15T11:36:15Z</time>
      </trkpt>
      <trkpt lat="48.02059" lon="6.99929">
        <ele>1377.18</ele>
        <time>2022-01-15T11:37:29Z</time>
      </trkpt>
      <trkpt lat="48.02059" lon="6.9993">
        <ele>1378.01</ele>
        <time>2022-01-15T11:41:23Z</time>
      </trkpt>
      <trkpt lat="48.02058" lon="6.9993">
        <ele>1378.59</ele>
        <time>2022-01-15T11:45:45Z</time>
      </trkpt>
      <trkpt lat="48.0206" lon="6.99928">
        <ele>1379.56</ele>
        <time>2022-01-15T11:50:33Z</time>
      </trkpt>
      <trkpt lat="48.02059" lon="6.99928">
        <ele>1379.8</ele>
        <time>2022-01-15T11:51:51Z</time>
      </trkpt>
      <trkpt lat="48.02059" lon="6.99928">
        <ele>1380</ele>
        <time>2022-01-15T11:54:24Z</time>
      </trkpt>
      <trkpt lat="48.02059" lon="6.99927">
        <ele>1380.18</ele>
        <time>2022-01-15T11:56:43Z</time>
      </trkpt>
      <trkpt lat="48.02059" lon="6.99927">
        <ele>1380.82</ele>
        <time>2022-01-15T11:59:30Z</time>
      </trkpt>
      <trkpt lat="48.02059" lon="6.99928">
        <ele>1381.66</ele>
        <time>2022-01-15T12:11:58Z</time>
      </trkpt>
      <trkpt lat="48.0206" lon="6.99928">
        <ele>1382.03</ele>
        <time>2022-01-15T12:13:46Z</time>
      </trkpt>
      <trkpt lat="48.02059" lon="6.99927">
        <ele>1382.37</ele>
        <time>2022-01-15T12:15:15Z</time>
      </trkpt>
      <trkpt lat="48.0206" lon="6.99928">
        <ele>1382.78</ele>
        <time>2022-01-15T12:19:58Z</time>
      </trkpt>
      <trkpt lat="48.02059" lon="6.99929">
        <ele>1382.88</ele>
        <time>2022-01-15T12:21:39Z</time>
      </trkpt>
      <trkpt lat="48.02058" lon="6.9993">
        <ele>1383.99</ele>
        <time>2022-01-15T12:27:18Z</time>
      </trkpt>
      <trkpt lat="48.0206" lon="6.99927">
        <ele>1383.95</ele>
        <time>2022-01-15T12:28:41Z</time>
      </trkpt>
      <trkpt lat="48.02058" lon="6.99928">
        <ele>1384.99</ele>
        <time>2022-01-15T12:29:57Z</time>
      </trkpt>
      <trkpt lat="48.02058" lon="6.99928">
        <ele>1385.14</ele>
        <time>2022-01-15T12:30:29Z</time>
      </trkpt>
      <trkpt lat="48.02058" lon="6.99928">
        <ele>1385.09</ele>
        <time>2022-01-15T12:31:00Z</time>
      </trkpt>
      <trkpt lat="48.02058" lon="6.99927">
        <ele>1384.55</ele>
        <time>2022-01-15T12:31:29Z</time>
      </trkpt>
      <trkpt lat="48.02065" lon="6.99922">
        <ele>1385.14</ele>
        <time>2022-01-15T12:31:55Z</time>
      </trkpt>
      <trkpt lat="48.0207" lon="6.99919">
        <ele>1385.55</ele>
        <time>2022-01-15T12:32:09Z</time>
      </trkpt>
      <trkpt lat="48.02071" lon="6.99917">
        <ele>1385.59</ele>
        <time>2022-01-15T12:32:11Z</time>
      </trkpt>
      <trkpt lat="48.02077" lon="6.9991">
        <ele>1385.7</ele>
        <time>2022-01-15T12:32:26Z</time>
      </trkpt>
      <trkpt lat="48.02087" lon="6.99908">
        <ele>1385.99</ele>
        <time>2022-01-15T12:32:42Z</time>
      </trkpt>
      <trkpt lat="48.02088" lon="6.99908">
        <ele>1385.99</ele>
        <time>2022-01-15T12:32:43Z</time>
      </trkpt>
      <trkpt lat="48.02094" lon="6.99908">
        <ele>1386.37</ele>
        <time>2022-01-15T12:32:51Z</time>
      </trkpt>
      <trkpt lat="48.02102" lon="6.99906">
        <ele>1386.58</ele>
        <time>2022-01-15T12:33:00Z</time>
      </trkpt>
      <trkpt lat="48.0212" lon="6.999">
        <ele>1385.93</ele>
        <time>2022-01-15T12:33:16Z</time>
      </trkpt>
      <trkpt lat="48.02131" lon="6.99899">
        <ele>1385.51</ele>
        <time>2022-01-15T12:33:33Z</time>
      </trkpt>
      <trkpt lat="48.02133" lon="6.99898">
        <ele>1385.44</ele>
        <time>2022-01-15T12:33:36Z</time>
      </trkpt>
      <trkpt lat="48.02136" lon="6.99899">
        <ele>1385.3</ele>
        <time>2022-01-15T12:33:57Z</time>
      </trkpt>
      <trkpt lat="48.02139" lon="6.99897">
        <ele>1385.11</ele>
        <time>2022-01-15T12:34:39Z</time>
      </trkpt>
      <trkpt lat="48.02148" lon="6.99897">
        <ele>1385.01</ele>
        <time>2022-01-15T12:34:44Z</time>
      </trkpt>
      <trkpt lat="48.02151" lon="6.99891">
        <ele>1384.95</ele>
        <time>2022-01-15T12:34:46Z</time>
      </trkpt>
      <trkpt lat="48.02156" lon="6.99874">
        <ele>1384.49</ele>
        <time>2022-01-15T12:34:51Z</time>
      </trkpt>
      <trkpt lat="48.02169" lon="6.99857">
        <ele>1383.14</ele>
        <time>2022-01-15T12:34:58Z</time>
      </trkpt>
      <trkpt lat="48.02187" lon="6.99846">
        <ele>1381.41</ele>
        <time>2022-01-15T12:35:05Z</time>
      </trkpt>
      <trkpt lat="48.02204" lon="6.99832">
        <ele>1379.9</ele>
        <time>2022-01-15T12:35:11Z</time>
      </trkpt>
      <trkpt lat="48.02227" lon="6.99804">
        <ele>1377.2</ele>
        <time>2022-01-15T12:35:18Z</time>
      </trkpt>
      <trkpt lat="48.02241" lon="6.99782">
        <ele>1374.84</ele>
        <time>2022-01-15T12:35:23Z</time>
      </trkpt>
      <trkpt lat="48.02262" lon="6.99757">
        <ele>1371.14</ele>
        <time>2022-01-15T12:35:29Z</time>
      </trkpt>
      <trkpt lat="48.02273" lon="6.99737">
        <ele>1367.71</ele>
        <time>2022-01-15T12:35:33Z</time>
      </trkpt>
      <trkpt lat="48.02276" lon="6.9973">
        <ele>1367.71</ele>
        <time>2022-01-15T12:35:34Z</time>
      </trkpt>
      <trkpt lat="48.02286" lon="6.99714">
        <ele>1364.17</ele>
        <time>2022-01-15T12:35:37Z</time>
      </trkpt>
      <trkpt lat="48.023" lon="6.99693">
        <ele>1360.43</ele>
        <time>2022-01-15T12:35:41Z</time>
      </trkpt>
      <trkpt lat="48.02316" lon="6.99672">
        <ele>1356.49</ele>
        <time>2022-01-15T12:35:45Z</time>
      </trkpt>
      <trkpt lat="48.02326" lon="6.99654">
        <ele>1353.1</ele>
        <time>2022-01-15T12:35:48Z</time>
      </trkpt>
      <trkpt lat="48.02337" lon="6.99639">
        <ele>1349.97</ele>
        <time>2022-01-15T12:35:51Z</time>
      </trkpt>
      <trkpt lat="48.02349" lon="6.99622">
        <ele>1346.11</ele>
        <time>2022-01-15T12:35:54Z</time>
      </trkpt>
      <trkpt lat="48.02361" lon="6.99604">
        <ele>1342.53</ele>
        <time>2022-01-15T12:35:57Z</time>
      </trkpt>
      <trkpt lat="48.02376" lon="6.99578">
        <ele>1334.96</ele>
        <time>2022-01-15T12:36:02Z</time>
      </trkpt>
      <trkpt lat="48.02388" lon="6.99566">
        <ele>1330.42</ele>
        <time>2022-01-15T12:36:05Z</time>
      </trkpt>
      <trkpt lat="48.024" lon="6.99549">
        <ele>1325.98</ele>
        <time>2022-01-15T12:36:08Z</time>
      </trkpt>
      <trkpt lat="48.0241" lon="6.9953">
        <ele>1321.79</ele>
        <time>2022-01-15T12:36:11Z</time>
      </trkpt>
      <trkpt lat="48.02422" lon="6.9952">
        <ele>1318.2</ele>
        <time>2022-01-15T12:36:14Z</time>
      </trkpt>
      <trkpt lat="48.02428" lon="6.99504">
        <ele>1313.93</ele>
        <time>2022-01-15T12:36:17Z</time>
      </trkpt>
      <trkpt lat="48.02432" lon="6.99503">
        <ele>1312.44</ele>
        <time>2022-01-15T12:36:18Z</time>
      </trkpt>
      <trkpt lat="48.02435" lon="6.995">
        <ele>1310.96</ele>
        <time>2022-01-15T12:36:19Z</time>
      </trkpt>
      <trkpt lat="48.02436" lon="6.99498">
        <ele>1307.36</ele>
        <time>2022-01-15T12:36:21Z</time>
      </trkpt>
      <trkpt lat="48.02437" lon="6.99497">
        <ele>1303.84</ele>
        <time>2022-01-15T12:36:23Z</time>
      </trkpt>
      <trkpt lat="48.02437" lon="6.99497">
        <ele>1300.56</ele>
        <time>2022-01-15T12:36:25Z</time>
      </trkpt>
      <trkpt lat="48.02437" lon="6.99497">
        <ele>1297.55</ele>
        <time>2022-01-15T12:36:26Z</time>
      </trkpt>
      <trkpt lat="48.02438" lon="6.99496">
        <ele>1294.43</ele>
        <time>2022-01-15T12:36:31Z</time>
      </trkpt>
      <trkpt lat="48.02438" lon="6.99493">
        <ele>1293.81</ele>
        <time>2022-01-15T12:37:45Z</time>
      </trkpt>
      <trkpt lat="48.02438" lon="6.99488">
        <ele>1293.8</ele>
        <time>2022-01-15T12:37:47Z</time>
      </trkpt>
      <trkpt lat="48.0245" lon="6.99459">
        <ele>1293.7</ele>
        <time>2022-01-15T12:37:53Z</time>
      </trkpt>
      <trkpt lat="48.0246" lon="6.99444">
        <ele>1293.15</ele>
        <time>2022-01-15T12:37:57Z</time>
      </trkpt>
      <trkpt lat="48.02461" lon="6.99439">
        <ele>1292.47</ele>
        <time>2022-01-15T12:37:58Z</time>
      </trkpt>
      <trkpt lat="48.02461" lon="6.99434">
        <ele>1291.42</ele>
        <time>2022-01-15T12:37:59Z</time>
      </trkpt>
      <trkpt lat="48.02461" lon="6.9943">
        <ele>1290.39</ele>
        <time>2022-01-15T12:38:00Z</time>
      </trkpt>
      <trkpt lat="48.02463" lon="6.99427">
        <ele>1289.42</ele>
        <time>2022-01-15T12:38:01Z</time>
      </trkpt>
      <trkpt lat="48.02467" lon="6.99426">
        <ele>1287.41</ele>
        <time>2022-01-15T12:38:03Z</time>
      </trkpt>
      <trkpt lat="48.0247" lon="6.99427">
        <ele>1286.26</ele>
        <time>2022-01-15T12:38:04Z</time>
      </trkpt>
      <trkpt lat="48.02472" lon="6.99424">
        <ele>1283.9</ele>
        <time>2022-01-15T12:38:05Z</time>
      </trkpt>
      <trkpt lat="48.02474" lon="6.99419">
        <ele>1283.9</ele>
        <time>2022-01-15T12:38:06Z</time>
      </trkpt>
      <trkpt lat="48.02476" lon="6.99412">
        <ele>1283</ele>
        <time>2022-01-15T12:38:07Z</time>
      </trkpt>
      <trkpt lat="48.0248" lon="6.99408">
        <ele>1281.58</ele>
        <time>2022-01-15T12:38:08Z</time>
      </trkpt>
      <trkpt lat="48.02495" lon="6.99382">
        <ele>1278.24</ele>
        <time>2022-01-15T12:38:13Z</time>
      </trkpt>
      <trkpt lat="48.02508" lon="6.99351">
        <ele>1273.17</ele>
        <time>2022-01-15T12:38:18Z</time>
      </trkpt>
      <trkpt lat="48.0252" lon="6.99334">
        <ele>1269.46</ele>
        <time>2022-01-15T12:38:21Z</time>
      </trkpt>
      <trkpt lat="48.02532" lon="6.99314">
        <ele>1266.23</ele>
        <time>2022-01-15T12:38:24Z</time>
      </trkpt>
      <trkpt lat="48.02535" lon="6.99309">
        <ele>1265</ele>
        <time>2022-01-15T12:38:25Z</time>
      </trkpt>
      <trkpt lat="48.02551" lon="6.99292">
        <ele>1259.13</ele>
        <time>2022-01-15T12:38:29Z</time>
      </trkpt>
      <trkpt lat="48.02567" lon="6.9928">
        <ele>1253.48</ele>
        <time>2022-01-15T12:38:32Z</time>
      </trkpt>
      <trkpt lat="48.02571" lon="6.99274">
        <ele>1249.69</ele>
        <time>2022-01-15T12:38:33Z</time>
      </trkpt>
      <trkpt lat="48.0258" lon="6.99266">
        <ele>1246.63</ele>
        <time>2022-01-15T12:38:35Z</time>
      </trkpt>
      <trkpt lat="48.02592" lon="6.99246">
        <ele>1242.19</ele>
        <time>2022-01-15T12:38:38Z</time>
      </trkpt>
      <trkpt lat="48.02603" lon="6.99236">
        <ele>1238.89</ele>
        <time>2022-01-15T12:38:40Z</time>
      </trkpt>
      <trkpt lat="48.02611" lon="6.99224">
        <ele>1235.6</ele>
        <time>2022-01-15T12:38:42Z</time>
      </trkpt>
      <trkpt lat="48.02619" lon="6.99211">
        <ele>1232.56</ele>
        <time>2022-01-15T12:38:44Z</time>
      </trkpt>
      <trkpt lat="48.02631" lon="6.99191">
        <ele>1227.87</ele>
        <time>2022-01-15T12:38:47Z</time>
      </trkpt>
      <trkpt lat="48.02638" lon="6.99179">
        <ele>1224.77</ele>
        <time>2022-01-15T12:38:49Z</time>
      </trkpt>
      <trkpt lat="48.02642" lon="6.99174">
        <ele>1223.26</ele>
        <time>2022-01-15T12:38:50Z</time>
      </trkpt>
      <trkpt lat="48.02656" lon="6.99146">
        <ele>1216.77</ele>
        <time>2022-01-15T12:38:54Z</time>
      </trkpt>
      <trkpt lat="48.02665" lon="6.99133">
        <ele>1213.37</ele>
        <time>2022-01-15T12:38:56Z</time>
      </trkpt>
      <trkpt lat="48.02669" lon="6.99124">
        <ele>1210.17</ele>
        <time>2022-01-15T12:38:57Z</time>
      </trkpt>
      <trkpt lat="48.02673" lon="6.99116">
        <ele>1210.17</ele>
        <time>2022-01-15T12:38:58Z</time>
      </trkpt>
      <trkpt lat="48.02678" lon="6.9911">
        <ele>1206.6</ele>
        <time>2022-01-15T12:38:59Z</time>
      </trkpt>
      <trkpt lat="48.02697" lon="6.99093">
        <ele>1201.19</ele>
        <time>2022-01-15T12:39:02Z</time>
      </trkpt>
      <trkpt lat="48.02711" lon="6.99068">
        <ele>1195.81</ele>
        <time>2022-01-15T12:39:05Z</time>
      </trkpt>
      <trkpt lat="48.02722" lon="6.99054">
        <ele>1192.73</ele>
        <time>2022-01-15T12:39:07Z</time>
      </trkpt>
      <trkpt lat="48.02739" lon="6.99031">
        <ele>1189.31</ele>
        <time>2022-01-15T12:39:10Z</time>
      </trkpt>
      <trkpt lat="48.02754" lon="6.99013">
        <ele>1186.08</ele>
        <time>2022-01-15T12:39:13Z</time>
      </trkpt>
      <trkpt lat="48.02758" lon="6.99007">
        <ele>1185.18</ele>
        <time>2022-01-15T12:39:14Z</time>
      </trkpt>
      <trkpt lat="48.02778" lon="6.98972">
        <ele>1179.53</ele>
        <time>2022-01-15T12:39:20Z</time>
      </trkpt>
      <trkpt lat="48.02782" lon="6.98967">
        <ele>1178.69</ele>
        <time>2022-01-15T12:39:21Z</time>
      </trkpt>
      <trkpt lat="48.02792" lon="6.98957">
        <ele>1176.98</ele>
        <time>2022-01-15T12:39:24Z</time>
      </trkpt>
      <trkpt lat="48.0281" lon="6.98927">
        <ele>1173.08</ele>
        <time>2022-01-15T12:39:30Z</time>
      </trkpt>
      <trkpt lat="48.02819" lon="6.98914">
        <ele>1171.78</ele>
        <time>2022-01-15T12:39:33Z</time>
      </trkpt>
      <trkpt lat="48.0284" lon="6.98884">
        <ele>1167.34</ele>
        <time>2022-01-15T12:39:39Z</time>
      </trkpt>
      <trkpt lat="48.02851" lon="6.98866">
        <ele>1164.55</ele>
        <time>2022-01-15T12:39:42Z</time>
      </trkpt>
      <trkpt lat="48.02866" lon="6.98841">
        <ele>1160.34</ele>
        <time>2022-01-15T12:39:46Z</time>
      </trkpt>
      <trkpt lat="48.02874" lon="6.98823">
        <ele>1156.96</ele>
        <time>2022-01-15T12:39:49Z</time>
      </trkpt>
      <trkpt lat="48.02885" lon="6.98815">
        <ele>1152.56</ele>
        <time>2022-01-15T12:39:51Z</time>
      </trkpt>
      <trkpt lat="48.02895" lon="6.98797">
        <ele>1148.58</ele>
        <time>2022-01-15T12:39:54Z</time>
      </trkpt>
      <trkpt lat="48.02913" lon="6.98771">
        <ele>1142.78</ele>
        <time>2022-01-15T12:39:59Z</time>
      </trkpt>
      <trkpt lat="48.02921" lon="6.98751">
        <ele>1139.82</ele>
        <time>2022-01-15T12:40:02Z</time>
      </trkpt>
      <trkpt lat="48.02925" lon="6.98744">
        <ele>1138.9</ele>
        <time>2022-01-15T12:40:03Z</time>
      </trkpt>
      <trkpt lat="48.0293" lon="6.9874">
        <ele>1138.21</ele>
        <time>2022-01-15T12:40:04Z</time>
      </trkpt>
      <trkpt lat="48.02933" lon="6.98734">
        <ele>1137.26</ele>
        <time>2022-01-15T12:40:05Z</time>
      </trkpt>
      <trkpt lat="48.02936" lon="6.98726">
        <ele>1136.32</ele>
        <time>2022-01-15T12:40:06Z</time>
      </trkpt>
      <trkpt lat="48.02939" lon="6.98719">
        <ele>1135.47</ele>
        <time>2022-01-15T12:40:07Z</time>
      </trkpt>
      <trkpt lat="48.02944" lon="6.98713">
        <ele>1134.4</ele>
        <time>2022-01-15T12:40:08Z</time>
      </trkpt>
      <trkpt lat="48.02949" lon="6.98708">
        <ele>1133.45</ele>
        <time>2022-01-15T12:40:09Z</time>
      </trkpt>
      <trkpt lat="48.02961" lon="6.98684">
        <ele>1130.12</ele>
        <time>2022-01-15T12:40:12Z</time>
      </trkpt>
      <trkpt lat="48.02971" lon="6.98673">
        <ele>1127.59</ele>
        <time>2022-01-15T12:40:14Z</time>
      </trkpt>
      <trkpt lat="48.02988" lon="6.98654">
        <ele>1120.34</ele>
        <time>2022-01-15T12:40:18Z</time>
      </trkpt>
      <trkpt lat="48.02994" lon="6.98648">
        <ele>1117.06</ele>
        <time>2022-01-15T12:40:20Z</time>
      </trkpt>
      <trkpt lat="48.02997" lon="6.98644">
        <ele>1115.25</ele>
        <time>2022-01-15T12:40:21Z</time>
      </trkpt>
      <trkpt lat="48.03003" lon="6.98642">
        <ele>1110.41</ele>
        <time>2022-01-15T12:40:25Z</time>
      </trkpt>
      <trkpt lat="48.03013" lon="6.98634">
        <ele>1108.59</ele>
        <time>2022-01-15T12:40:46Z</time>
      </trkpt>
      <trkpt lat="48.03014" lon="6.98639">
        <ele>1108.71</ele>
        <time>2022-01-15T12:41:44Z</time>
      </trkpt>
      <trkpt lat="48.03015" lon="6.98644">
        <ele>1108.72</ele>
        <time>2022-01-15T12:41:48Z</time>
      </trkpt>
      <trkpt lat="48.0301" lon="6.98667">
        <ele>1108.84</ele>
        <time>2022-01-15T12:42:00Z</time>
      </trkpt>
      <trkpt lat="48.0301" lon="6.98669">
        <ele>1108.83</ele>
        <time>2022-01-15T12:42:01Z</time>
      </trkpt>
      <trkpt lat="48.03011" lon="6.98688">
        <ele>1108.71</ele>
        <time>2022-01-15T12:42:11Z</time>
      </trkpt>
      <trkpt lat="48.03012" lon="6.98697">
        <ele>1108.52</ele>
        <time>2022-01-15T12:42:17Z</time>
      </trkpt>
      <trkpt lat="48.03012" lon="6.98699">
        <ele>1108.52</ele>
        <time>2022-01-15T12:42:18Z</time>
      </trkpt>
      <trkpt lat="48.03013" lon="6.98711">
        <ele>1108.66</ele>
        <time>2022-01-15T12:42:23Z</time>
      </trkpt>
      <trkpt lat="48.03014" lon="6.98713">
        <ele>1108.69</ele>
        <time>2022-01-15T12:42:24Z</time>
      </trkpt>
      <trkpt lat="48.03013" lon="6.98715">
        <ele>1108.71</ele>
        <time>2022-01-15T12:42:25Z</time>
      </trkpt>
      <trkpt lat="48.03013" lon="6.98718">
        <ele>1108.71</ele>
        <time>2022-01-15T12:42:26Z</time>
      </trkpt>
      <trkpt lat="48.03014" lon="6.9872">
        <ele>1108.72</ele>
        <time>2022-01-15T12:42:27Z</time>
      </trkpt>
      <trkpt lat="48.03015" lon="6.98729">
        <ele>1108.95</ele>
        <time>2022-01-15T12:42:33Z</time>
      </trkpt>
      <trkpt lat="48.03015" lon="6.9873">
        <ele>1108.97</ele>
        <time>2022-01-15T12:42:34Z</time>
      </trkpt>
      <trkpt lat="48.0301" lon="6.98751">
        <ele>1109.29</ele>
        <time>2022-01-15T12:42:54Z</time>
      </trkpt>
      <trkpt lat="48.0301" lon="6.98756">
        <ele>1109.37</ele>
        <time>2022-01-15T12:42:57Z</time>
      </trkpt>
      <trkpt lat="48.03004" lon="6.98769">
        <ele>1109.81</ele>
        <time>2022-01-15T12:43:52Z</time>
      </trkpt>
      <trkpt lat="48.03005" lon="6.98769">
        <ele>1109.54</ele>
        <time>2022-01-15T12:44:24Z</time>
      </trkpt>
      <trkpt lat="48.02998" lon="6.98769">
        <ele>1108.57</ele>
        <time>2022-01-15T12:45:09Z</time>
      </trkpt>
      <trkpt lat="48.03004" lon="6.98772">
        <ele>1108.62</ele>
        <time>2022-01-15T12:46:05Z</time>
      </trkpt>
      <trkpt lat="48.03003" lon="6.98774">
        <ele>1108.72</ele>
        <time>2022-01-15T12:47:00Z</time>
      </trkpt>
      <trkpt lat="48.03003" lon="6.98768">
        <ele>1109.92</ele>
        <time>2022-01-15T12:47:37Z</time>
      </trkpt>
      <trkpt lat="48.03002" lon="6.98769">
        <ele>1109.69</ele>
        <time>2022-01-15T12:48:00Z</time>
      </trkpt>
      <trkpt lat="48.03002" lon="6.98771">
        <ele>1109.72</ele>
        <time>2022-01-15T12:48:55Z</time>
      </trkpt>
      <trkpt lat="48.03003" lon="6.98771">
        <ele>1110.05</ele>
        <time>2022-01-15T12:49:17Z</time>
      </trkpt>
      <trkpt lat="48.03004" lon="6.98769">
        <ele>1110</ele>
        <time>2022-01-15T12:50:01Z</time>
      </trkpt>
      <trkpt lat="48.03005" lon="6.98767">
        <ele>1110</ele>
        <time>2022-01-15T12:50:56Z</time>
      </trkpt>
      <trkpt lat="48.03003" lon="6.98777">
        <ele>1110.29</ele>
        <time>2022-01-15T12:51:44Z</time>
      </trkpt>
      <trkpt lat="48.02998" lon="6.98791">
        <ele>1111.2</ele>
        <time>2022-01-15T12:51:57Z</time>
      </trkpt>
      <trkpt lat="48.02989" lon="6.98808">
        <ele>1112.03</ele>
        <time>2022-01-15T12:52:13Z</time>
      </trkpt>
      <trkpt lat="48.02968" lon="6.98835">
        <ele>1113.05</ele>
        <time>2022-01-15T12:52:40Z</time>
      </trkpt>
      <trkpt lat="48.02944" lon="6.98844">
        <ele>1114.68</ele>
        <time>2022-01-15T12:53:06Z</time>
      </trkpt>
      <trkpt lat="48.02927" lon="6.98861">
        <ele>1117.71</ele>
        <time>2022-01-15T12:53:32Z</time>
      </trkpt>
      <trkpt lat="48.02916" lon="6.98884">
        <ele>1120.72</ele>
        <time>2022-01-15T12:53:56Z</time>
      </trkpt>
      <trkpt lat="48.02909" lon="6.989">
        <ele>1123.3</ele>
        <time>2022-01-15T12:54:16Z</time>
      </trkpt>
      <trkpt lat="48.02904" lon="6.9892">
        <ele>1126.34</ele>
        <time>2022-01-15T12:54:35Z</time>
      </trkpt>
      <trkpt lat="48.02898" lon="6.98945">
        <ele>1129.39</ele>
        <time>2022-01-15T12:54:54Z</time>
      </trkpt>
      <trkpt lat="48.02898" lon="6.9898">
        <ele>1132.59</ele>
        <time>2022-01-15T12:55:17Z</time>
      </trkpt>
      <trkpt lat="48.02892" lon="6.99011">
        <ele>1135.37</ele>
        <time>2022-01-15T12:55:43Z</time>
      </trkpt>
      <trkpt lat="48.02886" lon="6.99036">
        <ele>1137.84</ele>
        <time>2022-01-15T12:56:08Z</time>
      </trkpt>
      <trkpt lat="48.0288" lon="6.99064">
        <ele>1140.07</ele>
        <time>2022-01-15T12:56:31Z</time>
      </trkpt>
      <trkpt lat="48.02877" lon="6.99094">
        <ele>1142.53</ele>
        <time>2022-01-15T12:56:54Z</time>
      </trkpt>
      <trkpt lat="48.02881" lon="6.99123">
        <ele>1145.61</ele>
        <time>2022-01-15T12:57:19Z</time>
      </trkpt>
      <trkpt lat="48.0289" lon="6.99146">
        <ele>1148.69</ele>
        <time>2022-01-15T12:57:42Z</time>
      </trkpt>
      <trkpt lat="48.02898" lon="6.99167">
        <ele>1151.69</ele>
        <time>2022-01-15T12:58:04Z</time>
      </trkpt>
      <trkpt lat="48.02906" lon="6.99173">
        <ele>1154.71</ele>
        <time>2022-01-15T12:58:28Z</time>
      </trkpt>
      <trkpt lat="48.02919" lon="6.99185">
        <ele>1156.73</ele>
        <time>2022-01-15T12:58:56Z</time>
      </trkpt>
      <trkpt lat="48.02927" lon="6.99201">
        <ele>1159.84</ele>
        <time>2022-01-15T12:59:16Z</time>
      </trkpt>
      <trkpt lat="48.0293" lon="6.99219">
        <ele>1162.88</ele>
        <time>2022-01-15T12:59:36Z</time>
      </trkpt>
      <trkpt lat="48.02933" lon="6.99242">
        <ele>1165.11</ele>
        <time>2022-01-15T12:59:57Z</time>
      </trkpt>
      <trkpt lat="48.02935" lon="6.9926">
        <ele>1166.06</ele>
        <time>2022-01-15T13:00:11Z</time>
      </trkpt>
      <trkpt lat="48.02935" lon="6.99277">
        <ele>1167.23</ele>
        <time>2022-01-15T13:00:27Z</time>
      </trkpt>
      <trkpt lat="48.02936" lon="6.99291">
        <ele>1168.72</ele>
        <time>2022-01-15T13:00:42Z</time>
      </trkpt>
      <trkpt lat="48.02941" lon="6.99306">
        <ele>1171.02</ele>
        <time>2022-01-15T13:01:04Z</time>
      </trkpt>
      <trkpt lat="48.02951" lon="6.99318">
        <ele>1174.08</ele>
        <time>2022-01-15T13:01:22Z</time>
      </trkpt>
      <trkpt lat="48.02957" lon="6.9933">
        <ele>1177.13</ele>
        <time>2022-01-15T13:01:38Z</time>
      </trkpt>
      <trkpt lat="48.0296" lon="6.99343">
        <ele>1180.13</ele>
        <time>2022-01-15T13:01:56Z</time>
      </trkpt>
      <trkpt lat="48.02965" lon="6.99353">
        <ele>1183.16</ele>
        <time>2022-01-15T13:02:12Z</time>
      </trkpt>
      <trkpt lat="48.02968" lon="6.99369">
        <ele>1186.26</ele>
        <time>2022-01-15T13:02:30Z</time>
      </trkpt>
      <trkpt lat="48.02973" lon="6.99382">
        <ele>1189.42</ele>
        <time>2022-01-15T13:02:46Z</time>
      </trkpt>
      <trkpt lat="48.02978" lon="6.99393">
        <ele>1192.45</ele>
        <time>2022-01-15T13:03:01Z</time>
      </trkpt>
      <trkpt lat="48.02979" lon="6.99406">
        <ele>1194.61</ele>
        <time>2022-01-15T13:03:14Z</time>
      </trkpt>
      <trkpt lat="48.02975" lon="6.99416">
        <ele>1195.61</ele>
        <time>2022-01-15T13:03:28Z</time>
      </trkpt>
      <trkpt lat="48.02975" lon="6.99418">
        <ele>1195.7</ele>
        <time>2022-01-15T13:03:32Z</time>
      </trkpt>
      <trkpt lat="48.02975" lon="6.99424">
        <ele>1196.18</ele>
        <time>2022-01-15T13:03:58Z</time>
      </trkpt>
      <trkpt lat="48.02979" lon="6.99443">
        <ele>1196.93</ele>
        <time>2022-01-15T13:04:13Z</time>
      </trkpt>
      <trkpt lat="48.02977" lon="6.99464">
        <ele>1198.28</ele>
        <time>2022-01-15T13:04:30Z</time>
      </trkpt>
      <trkpt lat="48.02968" lon="6.99489">
        <ele>1200.59</ele>
        <time>2022-01-15T13:04:56Z</time>
      </trkpt>
      <trkpt lat="48.02969" lon="6.99511">
        <ele>1203.1</ele>
        <time>2022-01-15T13:05:15Z</time>
      </trkpt>
      <trkpt lat="48.02965" lon="6.99524">
        <ele>1204.6</ele>
        <time>2022-01-15T13:05:39Z</time>
      </trkpt>
      <trkpt lat="48.02966" lon="6.99555">
        <ele>1207.61</ele>
        <time>2022-01-15T13:06:07Z</time>
      </trkpt>
      <trkpt lat="48.02962" lon="6.99579">
        <ele>1209.92</ele>
        <time>2022-01-15T13:06:29Z</time>
      </trkpt>
      <trkpt lat="48.02962" lon="6.99599">
        <ele>1212.26</ele>
        <time>2022-01-15T13:06:49Z</time>
      </trkpt>
      <trkpt lat="48.02963" lon="6.99625">
        <ele>1214.07</ele>
        <time>2022-01-15T13:07:07Z</time>
      </trkpt>
      <trkpt lat="48.02965" lon="6.9966">
        <ele>1216.41</ele>
        <time>2022-01-15T13:07:34Z</time>
      </trkpt>
      <trkpt lat="48.02962" lon="6.99684">
        <ele>1218.43</ele>
        <time>2022-01-15T13:07:56Z</time>
      </trkpt>
      <trkpt lat="48.02962" lon="6.99712">
        <ele>1220.22</ele>
        <time>2022-01-15T13:08:18Z</time>
      </trkpt>
      <trkpt lat="48.02961" lon="6.99742">
        <ele>1221.99</ele>
        <time>2022-01-15T13:08:42Z</time>
      </trkpt>
      <trkpt lat="48.02962" lon="6.99766">
        <ele>1223.82</ele>
        <time>2022-01-15T13:09:01Z</time>
      </trkpt>
      <trkpt lat="48.02964" lon="6.99775">
        <ele>1225.55</ele>
        <time>2022-01-15T13:09:20Z</time>
      </trkpt>
      <trkpt lat="48.02968" lon="6.99803">
        <ele>1226.56</ele>
        <time>2022-01-15T13:09:44Z</time>
      </trkpt>
      <trkpt lat="48.02973" lon="6.99823">
        <ele>1227.77</ele>
        <time>2022-01-15T13:10:00Z</time>
      </trkpt>
      <trkpt lat="48.02977" lon="6.99844">
        <ele>1228.89</ele>
        <time>2022-01-15T13:10:17Z</time>
      </trkpt>
      <trkpt lat="48.02981" lon="6.99865">
        <ele>1230.34</ele>
        <time>2022-01-15T13:10:34Z</time>
      </trkpt>
      <trkpt lat="48.02986" lon="6.9989">
        <ele>1231.47</ele>
        <time>2022-01-15T13:10:54Z</time>
      </trkpt>
      <trkpt lat="48.02992" lon="6.99906">
        <ele>1233.07</ele>
        <time>2022-01-15T13:11:12Z</time>
      </trkpt>
      <trkpt lat="48.02996" lon="6.99922">
        <ele>1233.92</ele>
        <time>2022-01-15T13:11:31Z</time>
      </trkpt>
      <trkpt lat="48.03002" lon="6.99942">
        <ele>1234.99</ele>
        <time>2022-01-15T13:11:48Z</time>
      </trkpt>
      <trkpt lat="48.03005" lon="6.99951">
        <ele>1235.16</ele>
        <time>2022-01-15T13:11:55Z</time>
      </trkpt>
      <trkpt lat="48.03005" lon="6.9996">
        <ele>1235.63</ele>
        <time>2022-01-15T13:12:02Z</time>
      </trkpt>
      <trkpt lat="48.03008" lon="6.99973">
        <ele>1236.32</ele>
        <time>2022-01-15T13:12:14Z</time>
      </trkpt>
      <trkpt lat="48.03015" lon="6.99995">
        <ele>1237.79</ele>
        <time>2022-01-15T13:12:33Z</time>
      </trkpt>
      <trkpt lat="48.03017" lon="7.00003">
        <ele>1238.98</ele>
        <time>2022-01-15T13:12:55Z</time>
      </trkpt>
      <trkpt lat="48.03028" lon="7.00017">
        <ele>1240.84</ele>
        <time>2022-01-15T13:13:13Z</time>
      </trkpt>
      <trkpt lat="48.03038" lon="7.00034">
        <ele>1243.87</ele>
        <time>2022-01-15T13:13:34Z</time>
      </trkpt>
      <trkpt lat="48.03042" lon="7.00047">
        <ele>1246.24</ele>
        <time>2022-01-15T13:13:52Z</time>
      </trkpt>
      <trkpt lat="48.03044" lon="7.00055">
        <ele>1248.76</ele>
        <time>2022-01-15T13:14:10Z</time>
      </trkpt>
      <trkpt lat="48.03045" lon="7.00078">
        <ele>1251.72</ele>
        <time>2022-01-15T13:14:33Z</time>
      </trkpt>
      <trkpt lat="48.03046" lon="7.00096">
        <ele>1252.59</ele>
        <time>2022-01-15T13:14:59Z</time>
      </trkpt>
      <trkpt lat="48.0305" lon="7.00108">
        <ele>1255.72</ele>
        <time>2022-01-15T13:15:20Z</time>
      </trkpt>
      <trkpt lat="48.03055" lon="7.00123">
        <ele>1258.87</ele>
        <time>2022-01-15T13:15:42Z</time>
      </trkpt>
      <trkpt lat="48.03062" lon="7.00135">
        <ele>1262</ele>
        <time>2022-01-15T13:16:07Z</time>
      </trkpt>
      <trkpt lat="48.03073" lon="7.00137">
        <ele>1265</ele>
        <time>2022-01-15T13:16:27Z</time>
      </trkpt>
      <trkpt lat="48.03077" lon="7.00128">
        <ele>1266.74</ele>
        <time>2022-01-15T13:16:57Z</time>
      </trkpt>
      <trkpt lat="48.03081" lon="7.00132">
        <ele>1268.56</ele>
        <time>2022-01-15T13:17:23Z</time>
      </trkpt>
      <trkpt lat="48.03089" lon="7.00141">
        <ele>1271.93</ele>
        <time>2022-01-15T13:17:45Z</time>
      </trkpt>
      <trkpt lat="48.03093" lon="7.00149">
        <ele>1274.95</ele>
        <time>2022-01-15T13:18:07Z</time>
      </trkpt>
      <trkpt lat="48.03103" lon="7.00153">
        <ele>1278.16</ele>
        <time>2022-01-15T13:18:32Z</time>
      </trkpt>
      <trkpt lat="48.03112" lon="7.00153">
        <ele>1281.3</ele>
        <time>2022-01-15T13:18:53Z</time>
      </trkpt>
      <trkpt lat="48.0312" lon="7.00154">
        <ele>1284.39</ele>
        <time>2022-01-15T13:19:13Z</time>
      </trkpt>
      <trkpt lat="48.03131" lon="7.00145">
        <ele>1287.28</ele>
        <time>2022-01-15T13:19:41Z</time>
      </trkpt>
      <trkpt lat="48.03143" lon="7.00134">
        <ele>1289.7</ele>
        <time>2022-01-15T13:20:03Z</time>
      </trkpt>
      <trkpt lat="48.03151" lon="7.00125">
        <ele>1290</ele>
        <time>2022-01-15T13:20:32Z</time>
      </trkpt>
      <trkpt lat="48.0316" lon="7.00114">
        <ele>1290.64</ele>
        <time>2022-01-15T13:20:48Z</time>
      </trkpt>
      <trkpt lat="48.03175" lon="7.00098">
        <ele>1292.34</ele>
        <time>2022-01-15T13:21:10Z</time>
      </trkpt>
      <trkpt lat="48.03189" lon="7.00089">
        <ele>1293.7</ele>
        <time>2022-01-15T13:21:31Z</time>
      </trkpt>
      <trkpt lat="48.03204" lon="7.00084">
        <ele>1295.31</ele>
        <time>2022-01-15T13:21:50Z</time>
      </trkpt>
      <trkpt lat="48.03218" lon="7.0008">
        <ele>1296.83</ele>
        <time>2022-01-15T13:22:09Z</time>
      </trkpt>
      <trkpt lat="48.03236" lon="7.00077">
        <ele>1298.47</ele>
        <time>2022-01-15T13:22:33Z</time>
      </trkpt>
      <trkpt lat="48.03253" lon="7.00076">
        <ele>1299.72</ele>
        <time>2022-01-15T13:22:55Z</time>
      </trkpt>
      <trkpt lat="48.03266" lon="7.00074">
        <ele>1299.98</ele>
        <time>2022-01-15T13:23:10Z</time>
      </trkpt>
      <trkpt lat="48.03279" lon="7.00074">
        <ele>1299.95</ele>
        <time>2022-01-15T13:23:27Z</time>
      </trkpt>
      <trkpt lat="48.0328" lon="7.00071">
        <ele>1299.95</ele>
        <time>2022-01-15T13:23:30Z</time>
      </trkpt>
      <trkpt lat="48.03288" lon="7.00058">
        <ele>1299.65</ele>
        <time>2022-01-15T13:23:47Z</time>
      </trkpt>
      <trkpt lat="48.03295" lon="7.00054">
        <ele>1299.35</ele>
        <time>2022-01-15T13:23:55Z</time>
      </trkpt>
      <trkpt lat="48.03302" lon="7.00053">
        <ele>1298.51</ele>
        <time>2022-01-15T13:24:12Z</time>
      </trkpt>
      <trkpt lat="48.03303" lon="7.00053">
        <ele>1298.42</ele>
        <time>2022-01-15T13:24:41Z</time>
      </trkpt>
      <trkpt lat="48.03303" lon="7.00054">
        <ele>1298.28</ele>
        <time>2022-01-15T13:25:15Z</time>
      </trkpt>
      <trkpt lat="48.03303" lon="7.00054">
        <ele>1297.37</ele>
        <time>2022-01-15T13:26:05Z</time>
      </trkpt>
      <trkpt lat="48.03302" lon="7.00054">
        <ele>1297.48</ele>
        <time>2022-01-15T13:28:48Z</time>
      </trkpt>
      <trkpt lat="48.03302" lon="7.00053">
        <ele>1298.3</ele>
        <time>2022-01-15T13:29:05Z</time>
      </trkpt>
      <trkpt lat="48.03302" lon="7.00053">
        <ele>1298.33</ele>
        <time>2022-01-15T13:29:52Z</time>
      </trkpt>
      <trkpt lat="48.03302" lon="7.00054">
        <ele>1298.4</ele>
        <time>2022-01-15T13:30:27Z</time>
      </trkpt>
      <trkpt lat="48.03302" lon="7.00053">
        <ele>1298.45</ele>
        <time>2022-01-15T13:30:55Z</time>
      </trkpt>
      <trkpt lat="48.03303" lon="7.00053">
        <ele>1298.3</ele>
        <time>2022-01-15T13:31:48Z</time>
      </trkpt>
      <trkpt lat="48.03303" lon="7.00052">
        <ele>1298.3</ele>
        <time>2022-01-15T13:32:22Z</time>
      </trkpt>
      <trkpt lat="48.03304" lon="7.00053">
        <ele>1298.21</ele>
        <time>2022-01-15T13:32:57Z</time>
      </trkpt>
      <trkpt lat="48.03308" lon="7.00053">
        <ele>1298.16</ele>
        <time>2022-01-15T13:33:01Z</time>
      </trkpt>
      <trkpt lat="48.0332" lon="7.00047">
        <ele>1298.02</ele>
        <time>2022-01-15T13:33:08Z</time>
      </trkpt>
      <trkpt lat="48.03324" lon="7.0004">
        <ele>1297.87</ele>
        <time>2022-01-15T13:33:10Z</time>
      </trkpt>
      <trkpt lat="48.03332" lon="7.00036">
        <ele>1297.78</ele>
        <time>2022-01-15T13:33:12Z</time>
      </trkpt>
      <trkpt lat="48.03345" lon="7.00021">
        <ele>1296.49</ele>
        <time>2022-01-15T13:33:19Z</time>
      </trkpt>
      <trkpt lat="48.03346" lon="7.00021">
        <ele>1294.41</ele>
        <time>2022-01-15T13:33:23Z</time>
      </trkpt>
      <trkpt lat="48.03361" lon="6.99996">
        <ele>1291.89</ele>
        <time>2022-01-15T13:33:30Z</time>
      </trkpt>
      <trkpt lat="48.03387" lon="6.99977">
        <ele>1289.25</ele>
        <time>2022-01-15T13:33:39Z</time>
      </trkpt>
      <trkpt lat="48.03396" lon="7">
        <ele>1287.65</ele>
        <time>2022-01-15T13:33:43Z</time>
      </trkpt>
      <trkpt lat="48.03405" lon="7.00018">
        <ele>1286.14</ele>
        <time>2022-01-15T13:33:46Z</time>
      </trkpt>
      <trkpt lat="48.03407" lon="7.00018">
        <ele>1285.51</ele>
        <time>2022-01-15T13:33:47Z</time>
      </trkpt>
      <trkpt lat="48.03408" lon="7.00019">
        <ele>1282.13</ele>
        <time>2022-01-15T13:33:51Z</time>
      </trkpt>
      <trkpt lat="48.03408" lon="7.0002">
        <ele>1278.15</ele>
        <time>2022-01-15T13:33:54Z</time>
      </trkpt>
      <trkpt lat="48.03408" lon="7.00022">
        <ele>1275.46</ele>
        <time>2022-01-15T13:33:58Z</time>
      </trkpt>
      <trkpt lat="48.03409" lon="7.0002">
        <ele>1275.12</ele>
        <time>2022-01-15T13:34:06Z</time>
      </trkpt>
      <trkpt lat="48.03415" lon="7.00021">
        <ele>1275.1</ele>
        <time>2022-01-15T13:34:08Z</time>
      </trkpt>
      <trkpt lat="48.03419" lon="7.00023">
        <ele>1275.09</ele>
        <time>2022-01-15T13:34:09Z</time>
      </trkpt>
      <trkpt lat="48.03431" lon="7.00026">
        <ele>1275.04</ele>
        <time>2022-01-15T13:34:13Z</time>
      </trkpt>
      <trkpt lat="48.03435" lon="7.00014">
        <ele>1274.18</ele>
        <time>2022-01-15T13:34:16Z</time>
      </trkpt>
      <trkpt lat="48.03435" lon="7.00002">
        <ele>1272.15</ele>
        <time>2022-01-15T13:34:18Z</time>
      </trkpt>
      <trkpt lat="48.03438" lon="6.99993">
        <ele>1270.2</ele>
        <time>2022-01-15T13:34:20Z</time>
      </trkpt>
      <trkpt lat="48.03446" lon="6.99994">
        <ele>1268.61</ele>
        <time>2022-01-15T13:34:22Z</time>
      </trkpt>
      <trkpt lat="48.03462" lon="6.9999">
        <ele>1262.94</ele>
        <time>2022-01-15T13:34:28Z</time>
      </trkpt>
      <trkpt lat="48.03472" lon="6.99999">
        <ele>1259.85</ele>
        <time>2022-01-15T13:34:31Z</time>
      </trkpt>
      <trkpt lat="48.03483" lon="6.99995">
        <ele>1255.72</ele>
        <time>2022-01-15T13:34:34Z</time>
      </trkpt>
      <trkpt lat="48.03492" lon="6.9999">
        <ele>1251.84</ele>
        <time>2022-01-15T13:34:37Z</time>
      </trkpt>
      <trkpt lat="48.03499" lon="6.99997">
        <ele>1247.84</ele>
        <time>2022-01-15T13:34:39Z</time>
      </trkpt>
      <trkpt lat="48.03511" lon="6.99992">
        <ele>1242.54</ele>
        <time>2022-01-15T13:34:43Z</time>
      </trkpt>
      <trkpt lat="48.03518" lon="6.99978">
        <ele>1238.15</ele>
        <time>2022-01-15T13:34:46Z</time>
      </trkpt>
      <trkpt lat="48.03529" lon="6.99986">
        <ele>1235.38</ele>
        <time>2022-01-15T13:34:48Z</time>
      </trkpt>
      <trkpt lat="48.03538" lon="6.99996">
        <ele>1233.43</ele>
        <time>2022-01-15T13:34:50Z</time>
      </trkpt>
      <trkpt lat="48.03556" lon="6.99984">
        <ele>1228.21</ele>
        <time>2022-01-15T13:34:55Z</time>
      </trkpt>
      <trkpt lat="48.03563" lon="6.99983">
        <ele>1225.04</ele>
        <time>2022-01-15T13:34:57Z</time>
      </trkpt>
      <trkpt lat="48.03574" lon="6.99978">
        <ele>1221.11</ele>
        <time>2022-01-15T13:35:00Z</time>
      </trkpt>
      <trkpt lat="48.0358" lon="6.9998">
        <ele>1217.98</ele>
        <time>2022-01-15T13:35:02Z</time>
      </trkpt>
      <trkpt lat="48.03581" lon="6.99979">
        <ele>1212.12</ele>
        <time>2022-01-15T13:35:06Z</time>
      </trkpt>
      <trkpt lat="48.03581" lon="6.99979">
        <ele>1208.35</ele>
        <time>2022-01-15T13:35:09Z</time>
      </trkpt>
      <trkpt lat="48.03582" lon="6.99978">
        <ele>1206.85</ele>
        <time>2022-01-15T13:35:12Z</time>
      </trkpt>
      <trkpt lat="48.03583" lon="6.99978">
        <ele>1206.61</ele>
        <time>2022-01-15T13:35:14Z</time>
      </trkpt>
      <trkpt lat="48.03603" lon="6.99971">
        <ele>1206.41</ele>
        <time>2022-01-15T13:35:21Z</time>
      </trkpt>
      <trkpt lat="48.03624" lon="6.99952">
        <ele>1205.01</ele>
        <time>2022-01-15T13:35:26Z</time>
      </trkpt>
      <trkpt lat="48.03652" lon="6.99921">
        <ele>1199.73</ele>
        <time>2022-01-15T13:35:31Z</time>
      </trkpt>
      <trkpt lat="48.03658" lon="6.99915">
        <ele>1196.53</ele>
        <time>2022-01-15T13:35:32Z</time>
      </trkpt>
      <trkpt lat="48.03672" lon="6.99909">
        <ele>1192.85</ele>
        <time>2022-01-15T13:35:34Z</time>
      </trkpt>
      <trkpt lat="48.03688" lon="6.99903">
        <ele>1189.59</ele>
        <time>2022-01-15T13:35:36Z</time>
      </trkpt>
      <trkpt lat="48.03705" lon="6.99898">
        <ele>1185.86</ele>
        <time>2022-01-15T13:35:38Z</time>
      </trkpt>
      <trkpt lat="48.03726" lon="6.99896">
        <ele>1182.25</ele>
        <time>2022-01-15T13:35:40Z</time>
      </trkpt>
      <trkpt lat="48.03737" lon="6.99897">
        <ele>1180.09</ele>
        <time>2022-01-15T13:35:41Z</time>
      </trkpt>
      <trkpt lat="48.03775" lon="6.99905">
        <ele>1171.44</ele>
        <time>2022-01-15T13:35:45Z</time>
      </trkpt>
      <trkpt lat="48.03787" lon="6.9991">
        <ele>1167.6</ele>
        <time>2022-01-15T13:35:47Z</time>
      </trkpt>
      <trkpt lat="48.0381" lon="6.99902">
        <ele>1161.59</ele>
        <time>2022-01-15T13:35:51Z</time>
      </trkpt>
      <trkpt lat="48.03838" lon="6.99904">
        <ele>1158.38</ele>
        <time>2022-01-15T13:35:55Z</time>
      </trkpt>
      <trkpt lat="48.03863" lon="6.99897">
        <ele>1154.02</ele>
        <time>2022-01-15T13:35:59Z</time>
      </trkpt>
      <trkpt lat="48.03882" lon="6.99901">
        <ele>1149.74</ele>
        <time>2022-01-15T13:36:05Z</time>
      </trkpt>
      <trkpt lat="48.03888" lon="6.99909">
        <ele>1146.91</ele>
        <time>2022-01-15T13:36:25Z</time>
      </trkpt>
      <trkpt lat="48.0389" lon="6.99913">
        <ele>1146.91</ele>
        <time>2022-01-15T13:36:27Z</time>
      </trkpt>
      <trkpt lat="48.03893" lon="6.9993">
        <ele>1147.07</ele>
        <time>2022-01-15T13:36:38Z</time>
      </trkpt>
      <trkpt lat="48.03893" lon="6.99934">
        <ele>1147.25</ele>
        <time>2022-01-15T13:36:41Z</time>
      </trkpt>
      <trkpt lat="48.03891" lon="6.99949">
        <ele>1147.95</ele>
        <time>2022-01-15T13:36:59Z</time>
      </trkpt>
      <trkpt lat="48.0389" lon="6.99953">
        <ele>1148</ele>
        <time>2022-01-15T13:37:24Z</time>
      </trkpt>
      <trkpt lat="48.03891" lon="6.99952">
        <ele>1146.99</ele>
        <time>2022-01-15T13:38:08Z</time>
      </trkpt>
      <trkpt lat="48.03891" lon="6.99955">
        <ele>1146.9</ele>
        <time>2022-01-15T13:39:01Z</time>
      </trkpt>
      <trkpt lat="48.0389" lon="6.99952">
        <ele>1147.09</ele>
        <time>2022-01-15T13:39:57Z</time>
      </trkpt>
      <trkpt lat="48.03889" lon="6.99954">
        <ele>1147.11</ele>
        <time>2022-01-15T13:40:27Z</time>
      </trkpt>
      <trkpt lat="48.03888" lon="6.99957">
        <ele>1147.24</ele>
        <time>2022-01-15T13:41:30Z</time>
      </trkpt>
      <trkpt lat="48.03886" lon="6.99957">
        <ele>1147.44</ele>
        <time>2022-01-15T13:42:14Z</time>
      </trkpt>
      <trkpt lat="48.03888" lon="6.99959">
        <ele>1147.58</ele>
        <time>2022-01-15T13:43:29Z</time>
      </trkpt>
      <trkpt lat="48.03891" lon="6.99959">
        <ele>1148.46</ele>
        <time>2022-01-15T13:50:36Z</time>
      </trkpt>
      <trkpt lat="48.03891" lon="6.99958">
        <ele>1149.6</ele>
        <time>2022-01-15T13:51:20Z</time>
      </trkpt>
      <trkpt lat="48.03892" lon="6.99959">
        <ele>1149.94</ele>
        <time>2022-01-15T13:51:36Z</time>
      </trkpt>
      <trkpt lat="48.03893" lon="6.99958">
        <ele>1149.84</ele>
        <time>2022-01-15T13:52:08Z</time>
      </trkpt>
      <trkpt lat="48.03892" lon="6.99957">
        <ele>1149.88</ele>
        <time>2022-01-15T13:52:34Z</time>
      </trkpt>
      <trkpt lat="48.03891" lon="6.99963">
        <ele>1150.03</ele>
        <time>2022-01-15T13:53:02Z</time>
      </trkpt>
      <trkpt lat="48.03903" lon="6.99969">
        <ele>1148.88</ele>
        <time>2022-01-15T13:53:23Z</time>
      </trkpt>
      <trkpt lat="48.03912" lon="6.99963">
        <ele>1148.33</ele>
        <time>2022-01-15T13:53:43Z</time>
      </trkpt>
      <trkpt lat="48.0392" lon="6.99958">
        <ele>1148.72</ele>
        <time>2022-01-15T13:54:05Z</time>
      </trkpt>
      <trkpt lat="48.03936" lon="6.99937">
        <ele>1149.23</ele>
        <time>2022-01-15T13:54:27Z</time>
      </trkpt>
      <trkpt lat="48.03938" lon="6.99933">
        <ele>1149.11</ele>
        <time>2022-01-15T13:54:30Z</time>
      </trkpt>
      <trkpt lat="48.03958" lon="6.99915">
        <ele>1148.52</ele>
        <time>2022-01-15T13:54:53Z</time>
      </trkpt>
      <trkpt lat="48.03973" lon="6.99911">
        <ele>1148.35</ele>
        <time>2022-01-15T13:55:17Z</time>
      </trkpt>
      <trkpt lat="48.03985" lon="6.99914">
        <ele>1148.21</ele>
        <time>2022-01-15T13:55:38Z</time>
      </trkpt>
      <trkpt lat="48.04007" lon="6.99923">
        <ele>1148.93</ele>
        <time>2022-01-15T13:56:02Z</time>
      </trkpt>
      <trkpt lat="48.04032" lon="6.99929">
        <ele>1150.48</ele>
        <time>2022-01-15T13:56:23Z</time>
      </trkpt>
      <trkpt lat="48.04049" lon="6.99928">
        <ele>1151.75</ele>
        <time>2022-01-15T13:56:42Z</time>
      </trkpt>
      <trkpt lat="48.04063" lon="6.99924">
        <ele>1152.65</ele>
        <time>2022-01-15T13:56:54Z</time>
      </trkpt>
      <trkpt lat="48.04071" lon="6.99922">
        <ele>1153.02</ele>
        <time>2022-01-15T13:57:04Z</time>
      </trkpt>
      <trkpt lat="48.04079" lon="6.99916">
        <ele>1153.61</ele>
        <time>2022-01-15T13:57:19Z</time>
      </trkpt>
      <trkpt lat="48.04094" lon="6.99913">
        <ele>1154.12</ele>
        <time>2022-01-15T13:57:36Z</time>
      </trkpt>
      <trkpt lat="48.04107" lon="6.99913">
        <ele>1154.84</ele>
        <time>2022-01-15T13:57:46Z</time>
      </trkpt>
      <trkpt lat="48.04123" lon="6.99916">
        <ele>1155.77</ele>
        <time>2022-01-15T13:58:06Z</time>
      </trkpt>
      <trkpt lat="48.04128" lon="6.99932">
        <ele>1158.43</ele>
        <time>2022-01-15T13:58:30Z</time>
      </trkpt>
      <trkpt lat="48.04141" lon="6.9994">
        <ele>1161.55</ele>
        <time>2022-01-15T13:58:53Z</time>
      </trkpt>
      <trkpt lat="48.04157" lon="6.99944">
        <ele>1163.59</ele>
        <time>2022-01-15T13:59:17Z</time>
      </trkpt>
      <trkpt lat="48.04173" lon="6.9995">
        <ele>1166.21</ele>
        <time>2022-01-15T13:59:43Z</time>
      </trkpt>
      <trkpt lat="48.04191" lon="6.9996">
        <ele>1168.28</ele>
        <time>2022-01-15T14:00:08Z</time>
      </trkpt>
      <trkpt lat="48.04203" lon="6.99971">
        <ele>1171.3</ele>
        <time>2022-01-15T14:00:31Z</time>
      </trkpt>
      <trkpt lat="48.04212" lon="6.99972">
        <ele>1173.05</ele>
        <time>2022-01-15T14:01:00Z</time>
      </trkpt>
      <trkpt lat="48.0422" lon="6.99978">
        <ele>1174.29</ele>
        <time>2022-01-15T14:01:34Z</time>
      </trkpt>
      <trkpt lat="48.04234" lon="6.99982">
        <ele>1177.16</ele>
        <time>2022-01-15T14:01:58Z</time>
      </trkpt>
      <trkpt lat="48.04249" lon="6.99989">
        <ele>1180.17</ele>
        <time>2022-01-15T14:02:20Z</time>
      </trkpt>
      <trkpt lat="48.0426" lon="6.99997">
        <ele>1183.21</ele>
        <time>2022-01-15T14:02:43Z</time>
      </trkpt>
      <trkpt lat="48.04279" lon="7.00004">
        <ele>1185.39</ele>
        <time>2022-01-15T14:03:07Z</time>
      </trkpt>
      <trkpt lat="48.04293" lon="7.00013">
        <ele>1188.4</ele>
        <time>2022-01-15T14:03:30Z</time>
      </trkpt>
      <trkpt lat="48.04305" lon="7.00022">
        <ele>1191.43</ele>
        <time>2022-01-15T14:03:53Z</time>
      </trkpt>
      <trkpt lat="48.04316" lon="7.00035">
        <ele>1193.38</ele>
        <time>2022-01-15T14:04:11Z</time>
      </trkpt>
      <trkpt lat="48.04327" lon="7.00056">
        <ele>1195.91</ele>
        <time>2022-01-15T14:04:39Z</time>
      </trkpt>
      <trkpt lat="48.04323" lon="7.00061">
        <ele>1198.58</ele>
        <time>2022-01-15T14:05:01Z</time>
      </trkpt>
      <trkpt lat="48.04311" lon="7.00055">
        <ele>1200.69</ele>
        <time>2022-01-15T14:05:26Z</time>
      </trkpt>
      <trkpt lat="48.04303" lon="7.00058">
        <ele>1202.67</ele>
        <time>2022-01-15T14:05:49Z</time>
      </trkpt>
      <trkpt lat="48.04306" lon="7.00072">
        <ele>1205.28</ele>
        <time>2022-01-15T14:06:14Z</time>
      </trkpt>
      <trkpt lat="48.04302" lon="7.00089">
        <ele>1207.65</ele>
        <time>2022-01-15T14:06:35Z</time>
      </trkpt>
      <trkpt lat="48.04297" lon="7.00094">
        <ele>1210.65</ele>
        <time>2022-01-15T14:06:52Z</time>
      </trkpt>
      <trkpt lat="48.04283" lon="7.00098">
        <ele>1212.83</ele>
        <time>2022-01-15T14:07:13Z</time>
      </trkpt>
      <trkpt lat="48.04275" lon="7.00104">
        <ele>1213.54</ele>
        <time>2022-01-15T14:07:24Z</time>
      </trkpt>
      <trkpt lat="48.04268" lon="7.00108">
        <ele>1214.35</ele>
        <time>2022-01-15T14:07:33Z</time>
      </trkpt>
      <trkpt lat="48.04262" lon="7.00121">
        <ele>1216.17</ele>
        <time>2022-01-15T14:07:52Z</time>
      </trkpt>
      <trkpt lat="48.04266" lon="7.00138">
        <ele>1219.24</ele>
        <time>2022-01-15T14:08:17Z</time>
      </trkpt>
      <trkpt lat="48.0427" lon="7.00157">
        <ele>1222.32</ele>
        <time>2022-01-15T14:08:42Z</time>
      </trkpt>
      <trkpt lat="48.04273" lon="7.00174">
        <ele>1224.97</ele>
        <time>2022-01-15T14:09:05Z</time>
      </trkpt>
      <trkpt lat="48.04278" lon="7.00192">
        <ele>1228.05</ele>
        <time>2022-01-15T14:09:28Z</time>
      </trkpt>
      <trkpt lat="48.04284" lon="7.00212">
        <ele>1231.35</ele>
        <time>2022-01-15T14:09:57Z</time>
      </trkpt>
      <trkpt lat="48.04292" lon="7.00232">
        <ele>1234.35</ele>
        <time>2022-01-15T14:10:26Z</time>
      </trkpt>
      <trkpt lat="48.04297" lon="7.0025">
        <ele>1236.71</ele>
        <time>2022-01-15T14:10:48Z</time>
      </trkpt>
      <trkpt lat="48.04303" lon="7.00266">
        <ele>1238.96</ele>
        <time>2022-01-15T14:11:13Z</time>
      </trkpt>
      <trkpt lat="48.04309" lon="7.00276">
        <ele>1240.07</ele>
        <time>2022-01-15T14:11:29Z</time>
      </trkpt>
      <trkpt lat="48.04314" lon="7.00287">
        <ele>1240.37</ele>
        <time>2022-01-15T14:11:51Z</time>
      </trkpt>
      <trkpt lat="48.04319" lon="7.00306">
        <ele>1240.81</ele>
        <time>2022-01-15T14:12:10Z</time>
      </trkpt>
      <trkpt lat="48.04323" lon="7.0033">
        <ele>1241.5</ele>
        <time>2022-01-15T14:12:28Z</time>
      </trkpt>
      <trkpt lat="48.04326" lon="7.0035">
        <ele>1242.64</ele>
        <time>2022-01-15T14:12:46Z</time>
      </trkpt>
      <trkpt lat="48.04327" lon="7.00365">
        <ele>1244.45</ele>
        <time>2022-01-15T14:13:04Z</time>
      </trkpt>
      <trkpt lat="48.04329" lon="7.00371">
        <ele>1246.92</ele>
        <time>2022-01-15T14:13:23Z</time>
      </trkpt>
      <trkpt lat="48.04327" lon="7.00375">
        <ele>1246.87</ele>
        <time>2022-01-15T14:13:40Z</time>
      </trkpt>
      <trkpt lat="48.04332" lon="7.00378">
        <ele>1247.03</ele>
        <time>2022-01-15T14:14:03Z</time>
      </trkpt>
      <trkpt lat="48.04336" lon="7.00381">
        <ele>1247.03</ele>
        <time>2022-01-15T14:14:09Z</time>
      </trkpt>
      <trkpt lat="48.04332" lon="7.00386">
        <ele>1247.14</ele>
        <time>2022-01-15T14:14:16Z</time>
      </trkpt>
      <trkpt lat="48.04348" lon="7.00405">
        <ele>1247.97</ele>
        <time>2022-01-15T14:14:36Z</time>
      </trkpt>
      <trkpt lat="48.04353" lon="7.00412">
        <ele>1248.12</ele>
        <time>2022-01-15T14:14:40Z</time>
      </trkpt>
      <trkpt lat="48.04366" lon="7.00427">
        <ele>1247.85</ele>
        <time>2022-01-15T14:14:55Z</time>
      </trkpt>
      <trkpt lat="48.04374" lon="7.00439">
        <ele>1248.23</ele>
        <time>2022-01-15T14:15:07Z</time>
      </trkpt>
      <trkpt lat="48.0438" lon="7.00456">
        <ele>1249.51</ele>
        <time>2022-01-15T14:15:24Z</time>
      </trkpt>
      <trkpt lat="48.04381" lon="7.0046">
        <ele>1249.92</ele>
        <time>2022-01-15T14:15:28Z</time>
      </trkpt>
      <trkpt lat="48.04381" lon="7.00462">
        <ele>1250</ele>
        <time>2022-01-15T14:15:31Z</time>
      </trkpt>
      <trkpt lat="48.04387" lon="7.00469">
        <ele>1250.59</ele>
        <time>2022-01-15T14:15:47Z</time>
      </trkpt>
      <trkpt lat="48.04395" lon="7.00489">
        <ele>1252.36</ele>
        <time>2022-01-15T14:16:11Z</time>
      </trkpt>
      <trkpt lat="48.04405" lon="7.00506">
        <ele>1253.99</ele>
        <time>2022-01-15T14:16:33Z</time>
      </trkpt>
      <trkpt lat="48.04413" lon="7.00516">
        <ele>1254.96</ele>
        <time>2022-01-15T14:16:54Z</time>
      </trkpt>
      <trkpt lat="48.04423" lon="7.00536">
        <ele>1257.04</ele>
        <time>2022-01-15T14:17:16Z</time>
      </trkpt>
      <trkpt lat="48.0443" lon="7.00552">
        <ele>1259.93</ele>
        <time>2022-01-15T14:17:40Z</time>
      </trkpt>
      <trkpt lat="48.04439" lon="7.00564">
        <ele>1262.01</ele>
        <time>2022-01-15T14:17:59Z</time>
      </trkpt>
      <trkpt lat="48.04451" lon="7.00582">
        <ele>1264.86</ele>
        <time>2022-01-15T14:18:27Z</time>
      </trkpt>
      <trkpt lat="48.04459" lon="7.006">
        <ele>1266.64</ele>
        <time>2022-01-15T14:18:52Z</time>
      </trkpt>
      <trkpt lat="48.04472" lon="7.0062">
        <ele>1268.9</ele>
        <time>2022-01-15T14:19:20Z</time>
      </trkpt>
      <trkpt lat="48.04488" lon="7.00628">
        <ele>1268.61</ele>
        <time>2022-01-15T14:19:43Z</time>
      </trkpt>
      <trkpt lat="48.04497" lon="7.0064">
        <ele>1268.12</ele>
        <time>2022-01-15T14:20:08Z</time>
      </trkpt>
      <trkpt lat="48.04505" lon="7.00657">
        <ele>1270.98</ele>
        <time>2022-01-15T14:20:37Z</time>
      </trkpt>
      <trkpt lat="48.04518" lon="7.00671">
        <ele>1273.2</ele>
        <time>2022-01-15T14:21:00Z</time>
      </trkpt>
      <trkpt lat="48.04533" lon="7.00682">
        <ele>1273.44</ele>
        <time>2022-01-15T14:21:23Z</time>
      </trkpt>
      <trkpt lat="48.0455" lon="7.00699">
        <ele>1273.34</ele>
        <time>2022-01-15T14:21:48Z</time>
      </trkpt>
      <trkpt lat="48.04571" lon="7.00718">
        <ele>1273.65</ele>
        <time>2022-01-15T14:22:15Z</time>
      </trkpt>
      <trkpt lat="48.0459" lon="7.00736">
        <ele>1274.32</ele>
        <time>2022-01-15T14:22:41Z</time>
      </trkpt>
      <trkpt lat="48.04605" lon="7.00754">
        <ele>1274.42</ele>
        <time>2022-01-15T14:23:02Z</time>
      </trkpt>
      <trkpt lat="48.04622" lon="7.0077">
        <ele>1274.33</ele>
        <time>2022-01-15T14:23:27Z</time>
      </trkpt>
      <trkpt lat="48.0464" lon="7.00785">
        <ele>1274.96</ele>
        <time>2022-01-15T14:23:52Z</time>
      </trkpt>
      <trkpt lat="48.04655" lon="7.00796">
        <ele>1275.58</ele>
        <time>2022-01-15T14:24:12Z</time>
      </trkpt>
      <trkpt lat="48.04671" lon="7.00801">
        <ele>1276.16</ele>
        <time>2022-01-15T14:24:33Z</time>
      </trkpt>
      <trkpt lat="48.0469" lon="7.00807">
        <ele>1276.95</ele>
        <time>2022-01-15T14:24:55Z</time>
      </trkpt>
      <trkpt lat="48.04703" lon="7.00817">
        <ele>1276.89</ele>
        <time>2022-01-15T14:25:13Z</time>
      </trkpt>
      <trkpt lat="48.04716" lon="7.00821">
        <ele>1276.28</ele>
        <time>2022-01-15T14:25:36Z</time>
      </trkpt>
      <trkpt lat="48.04733" lon="7.0083">
        <ele>1276.1</ele>
        <time>2022-01-15T14:25:57Z</time>
      </trkpt>
      <trkpt lat="48.04749" lon="7.00838">
        <ele>1275.28</ele>
        <time>2022-01-15T14:26:16Z</time>
      </trkpt>
      <trkpt lat="48.04773" lon="7.00849">
        <ele>1274.83</ele>
        <time>2022-01-15T14:26:40Z</time>
      </trkpt>
      <trkpt lat="48.04791" lon="7.00858">
        <ele>1274.24</ele>
        <time>2022-01-15T14:27:01Z</time>
      </trkpt>
      <trkpt lat="48.04804" lon="7.00865">
        <ele>1274.03</ele>
        <time>2022-01-15T14:27:15Z</time>
      </trkpt>
      <trkpt lat="48.04825" lon="7.00874">
        <ele>1273.84</ele>
        <time>2022-01-15T14:27:32Z</time>
      </trkpt>
      <trkpt lat="48.04838" lon="7.00879">
        <ele>1273.64</ele>
        <time>2022-01-15T14:27:48Z</time>
      </trkpt>
      <trkpt lat="48.0485" lon="7.00891">
        <ele>1273.45</ele>
        <time>2022-01-15T14:28:05Z</time>
      </trkpt>
      <trkpt lat="48.04865" lon="7.00896">
        <ele>1273.33</ele>
        <time>2022-01-15T14:28:23Z</time>
      </trkpt>
      <trkpt lat="48.04881" lon="7.00908">
        <ele>1273.32</ele>
        <time>2022-01-15T14:28:45Z</time>
      </trkpt>
      <trkpt lat="48.0489" lon="7.00923">
        <ele>1272.75</ele>
        <time>2022-01-15T14:29:13Z</time>
      </trkpt>
      <trkpt lat="48.04893" lon="7.00929">
        <ele>1272.64</ele>
        <time>2022-01-15T14:29:40Z</time>
      </trkpt>
      <trkpt lat="48.04898" lon="7.00926">
        <ele>1271.34</ele>
        <time>2022-01-15T14:30:04Z</time>
      </trkpt>
      <trkpt lat="48.04901" lon="7.00933">
        <ele>1271.22</ele>
        <time>2022-01-15T14:30:53Z</time>
      </trkpt>
      <trkpt lat="48.04905" lon="7.00926">
        <ele>1271.24</ele>
        <time>2022-01-15T14:31:26Z</time>
      </trkpt>
      <trkpt lat="48.04905" lon="7.00924">
        <ele>1271.21</ele>
        <time>2022-01-15T14:31:56Z</time>
      </trkpt>
      <trkpt lat="48.04914" lon="7.00915">
        <ele>1271.38</ele>
        <time>2022-01-15T14:32:29Z</time>
      </trkpt>
      <trkpt lat="48.04911" lon="7.00926">
        <ele>1271.24</ele>
        <time>2022-01-15T14:33:01Z</time>
      </trkpt>
      <trkpt lat="48.04907" lon="7.00925">
        <ele>1271.42</ele>
        <time>2022-01-15T14:33:38Z</time>
      </trkpt>
      <trkpt lat="48.04902" lon="7.00927">
        <ele>1271.54</ele>
        <time>2022-01-15T14:34:53Z</time>
      </trkpt>
      <trkpt lat="48.04901" lon="7.00928">
        <ele>1272.48</ele>
        <time>2022-01-15T14:35:12Z</time>
      </trkpt>
      <trkpt lat="48.04899" lon="7.00929">
        <ele>1272.34</ele>
        <time>2022-01-15T14:35:46Z</time>
      </trkpt>
      <trkpt lat="48.04897" lon="7.0093">
        <ele>1272.51</ele>
        <time>2022-01-15T14:36:17Z</time>
      </trkpt>
      <trkpt lat="48.04895" lon="7.0093">
        <ele>1272.81</ele>
        <time>2022-01-15T14:36:43Z</time>
      </trkpt>
      <trkpt lat="48.04893" lon="7.00936">
        <ele>1272.63</ele>
        <time>2022-01-15T14:37:10Z</time>
      </trkpt>
      <trkpt lat="48.04894" lon="7.00936">
        <ele>1272.47</ele>
        <time>2022-01-15T14:37:26Z</time>
      </trkpt>
      <trkpt lat="48.049" lon="7.00935">
        <ele>1272.42</ele>
        <time>2022-01-15T14:37:29Z</time>
      </trkpt>
      <trkpt lat="48.04903" lon="7.00935">
        <ele>1272.4</ele>
        <time>2022-01-15T14:37:30Z</time>
      </trkpt>
      <trkpt lat="48.04905" lon="7.00936">
        <ele>1272.39</ele>
        <time>2022-01-15T14:37:31Z</time>
      </trkpt>
      <trkpt lat="48.04907" lon="7.00938">
        <ele>1272.35</ele>
        <time>2022-01-15T14:37:32Z</time>
      </trkpt>
      <trkpt lat="48.04909" lon="7.00937">
        <ele>1272.24</ele>
        <time>2022-01-15T14:37:34Z</time>
      </trkpt>
      <trkpt lat="48.04912" lon="7.0093">
        <ele>1271.14</ele>
        <time>2022-01-15T14:37:38Z</time>
      </trkpt>
      <trkpt lat="48.04916" lon="7.00922">
        <ele>1267.52</ele>
        <time>2022-01-15T14:37:49Z</time>
      </trkpt>
      <trkpt lat="48.04917" lon="7.00923">
        <ele>1266.75</ele>
        <time>2022-01-15T14:37:54Z</time>
      </trkpt>
      <trkpt lat="48.04918" lon="7.00914">
        <ele>1266.66</ele>
        <time>2022-01-15T14:37:57Z</time>
      </trkpt>
      <trkpt lat="48.04915" lon="7.00897">
        <ele>1266.56</ele>
        <time>2022-01-15T14:38:01Z</time>
      </trkpt>
      <trkpt lat="48.04925" lon="7.00882">
        <ele>1265.66</ele>
        <time>2022-01-15T14:38:05Z</time>
      </trkpt>
      <trkpt lat="48.04932" lon="7.00857">
        <ele>1261.94</ele>
        <time>2022-01-15T14:38:11Z</time>
      </trkpt>
      <trkpt lat="48.04934" lon="7.00841">
        <ele>1258.71</ele>
        <time>2022-01-15T14:38:14Z</time>
      </trkpt>
      <trkpt lat="48.04938" lon="7.00823">
        <ele>1255.16</ele>
        <time>2022-01-15T14:38:18Z</time>
      </trkpt>
      <trkpt lat="48.04937" lon="7.00809">
        <ele>1251.95</ele>
        <time>2022-01-15T14:38:21Z</time>
      </trkpt>
      <trkpt lat="48.04938" lon="7.00805">
        <ele>1247.86</ele>
        <time>2022-01-15T14:38:24Z</time>
      </trkpt>
      <trkpt lat="48.04941" lon="7.00804">
        <ele>1244.54</ele>
        <time>2022-01-15T14:38:27Z</time>
      </trkpt>
      <trkpt lat="48.04942" lon="7.00803">
        <ele>1243.66</ele>
        <time>2022-01-15T14:38:28Z</time>
      </trkpt>
      <trkpt lat="48.04945" lon="7.00777">
        <ele>1239.77</ele>
        <time>2022-01-15T14:38:33Z</time>
      </trkpt>
      <trkpt lat="48.04962" lon="7.00773">
        <ele>1237.61</ele>
        <time>2022-01-15T14:38:39Z</time>
      </trkpt>
      <trkpt lat="48.04965" lon="7.00759">
        <ele>1235.22</ele>
        <time>2022-01-15T14:38:42Z</time>
      </trkpt>
      <trkpt lat="48.04972" lon="7.00737">
        <ele>1232.13</ele>
        <time>2022-01-15T14:38:46Z</time>
      </trkpt>
      <trkpt lat="48.04978" lon="7.00713">
        <ele>1228.32</ele>
        <time>2022-01-15T14:38:50Z</time>
      </trkpt>
      <trkpt lat="48.04981" lon="7.0069">
        <ele>1223.89</ele>
        <time>2022-01-15T14:38:54Z</time>
      </trkpt>
      <trkpt lat="48.04982" lon="7.00688">
        <ele>1222.56</ele>
        <time>2022-01-15T14:38:55Z</time>
      </trkpt>
      <trkpt lat="48.04982" lon="7.00687">
        <ele>1221</ele>
        <time>2022-01-15T14:38:56Z</time>
      </trkpt>
      <trkpt lat="48.0498" lon="7.00685">
        <ele>1217.31</ele>
        <time>2022-01-15T14:38:59Z</time>
      </trkpt>
      <trkpt lat="48.04975" lon="7.00684">
        <ele>1213.71</ele>
        <time>2022-01-15T14:39:02Z</time>
      </trkpt>
      <trkpt lat="48.04971" lon="7.00683">
        <ele>1210.84</ele>
        <time>2022-01-15T14:39:06Z</time>
      </trkpt>
      <trkpt lat="48.0497" lon="7.00682">
        <ele>1210.23</ele>
        <time>2022-01-15T14:39:28Z</time>
      </trkpt>
      <trkpt lat="48.04976" lon="7.00684">
        <ele>1210.22</ele>
        <time>2022-01-15T14:39:30Z</time>
      </trkpt>
      <trkpt lat="48.04977" lon="7.00681">
        <ele>1210.21</ele>
        <time>2022-01-15T14:39:31Z</time>
      </trkpt>
      <trkpt lat="48.04985" lon="7.00655">
        <ele>1210.17</ele>
        <time>2022-01-15T14:39:35Z</time>
      </trkpt>
      <trkpt lat="48.0499" lon="7.00623">
        <ele>1207.01</ele>
        <time>2022-01-15T14:39:42Z</time>
      </trkpt>
      <trkpt lat="48.04993" lon="7.00601">
        <ele>1201.52</ele>
        <time>2022-01-15T14:39:47Z</time>
      </trkpt>
      <trkpt lat="48.04997" lon="7.00586">
        <ele>1198.26</ele>
        <time>2022-01-15T14:39:50Z</time>
      </trkpt>
    </trkseg>
  </trk>
</gpx>